<?xml version="1.0" encoding="UTF-8" standalone="no" ?>
<gpx xmlns="http://www.topografix.com/GPX/1/1" xmlns:xsi="http://www.w3.org/2001/XMLSchema-instance" xsi:schemaLocation="http://www.topografix.com/GPX/1/1 http://www.topografix.com/GPX/1/1/gpx.xsd" version="1.1" creator="VisuGPX - https://www.visugpx.com">
  <metadata>
    <name>VAISON LES DENTELLES DE MONTMIRAIL</name>
  </metadata>
  <wpt lat="44.16559" lon="5.00518">
    <ele>229.07421875</ele>
    <name><![CDATA[DéPART VAISON LES DENTELLES DE MONTMIRAIL]]></name>
    <type><![CDATA[user]]></type>
  </wpt>
  <trk>
    <name><![CDATA[VAISON LES DENTELLES DE MONTMIRAIL]]></name>
    <trkseg>
      <trkpt lat="44.16558" lon="5.00519">
        <ele>224.12</ele>
        <time>2017-05-13T07:17:28Z</time>
      </trkpt>
      <trkpt lat="44.16563" lon="5.00536">
        <ele>229.65234375</ele>
      </trkpt>
      <trkpt lat="44.16568" lon="5.00541">
        <ele>226.05</ele>
        <time>2017-05-13T07:25:29Z</time>
      </trkpt>
      <trkpt lat="44.16564" lon="5.00551">
        <ele>227.49</ele>
        <time>2017-05-13T07:25:56Z</time>
      </trkpt>
      <trkpt lat="44.16562" lon="5.00553">
        <ele>227.49</ele>
        <time>2017-05-13T07:28:14Z</time>
      </trkpt>
      <trkpt lat="44.16555" lon="5.00562">
        <ele>227.49</ele>
        <time>2017-05-13T07:28:32Z</time>
      </trkpt>
      <trkpt lat="44.16546" lon="5.0057">
        <ele>228.45</ele>
        <time>2017-05-13T07:28:42Z</time>
      </trkpt>
      <trkpt lat="44.16538" lon="5.00578">
        <ele>228.93</ele>
        <time>2017-05-13T07:28:52Z</time>
      </trkpt>
      <trkpt lat="44.16529" lon="5.00586">
        <ele>229.89</ele>
        <time>2017-05-13T07:29:03Z</time>
      </trkpt>
      <trkpt lat="44.1652" lon="5.00595">
        <ele>230.85</ele>
        <time>2017-05-13T07:29:13Z</time>
      </trkpt>
      <trkpt lat="44.1651" lon="5.006">
        <ele>231.33</ele>
        <time>2017-05-13T07:29:23Z</time>
      </trkpt>
      <trkpt lat="44.16499" lon="5.00598">
        <ele>232.3</ele>
        <time>2017-05-13T07:29:35Z</time>
      </trkpt>
      <trkpt lat="44.1649" lon="5.00597">
        <ele>232.78</ele>
        <time>2017-05-13T07:30:10Z</time>
      </trkpt>
      <trkpt lat="44.16481" lon="5.00589">
        <ele>233.26</ele>
        <time>2017-05-13T07:30:24Z</time>
      </trkpt>
      <trkpt lat="44.16471" lon="5.00582">
        <ele>234.22</ele>
        <time>2017-05-13T07:30:37Z</time>
      </trkpt>
      <trkpt lat="44.16462" lon="5.00573">
        <ele>234.7</ele>
        <time>2017-05-13T07:30:49Z</time>
      </trkpt>
      <trkpt lat="44.16451" lon="5.00564">
        <ele>235.18</ele>
        <time>2017-05-13T07:31:00Z</time>
      </trkpt>
      <trkpt lat="44.16442" lon="5.00556">
        <ele>235.66</ele>
        <time>2017-05-13T07:31:10Z</time>
      </trkpt>
      <trkpt lat="44.16433" lon="5.00547">
        <ele>236.14</ele>
        <time>2017-05-13T07:31:20Z</time>
      </trkpt>
      <trkpt lat="44.16424" lon="5.00538">
        <ele>236.62</ele>
        <time>2017-05-13T07:31:34Z</time>
      </trkpt>
      <trkpt lat="44.16417" lon="5.00534">
        <ele>237.58</ele>
        <time>2017-05-13T07:31:54Z</time>
      </trkpt>
      <trkpt lat="44.16419" lon="5.00547">
        <ele>239.51</ele>
        <time>2017-05-13T07:32:48Z</time>
      </trkpt>
      <trkpt lat="44.16427" lon="5.00557">
        <ele>240.95</ele>
        <time>2017-05-13T07:33:01Z</time>
      </trkpt>
      <trkpt lat="44.16433" lon="5.00566">
        <ele>241.43</ele>
        <time>2017-05-13T07:33:13Z</time>
      </trkpt>
      <trkpt lat="44.16438" lon="5.00578">
        <ele>241.91</ele>
        <time>2017-05-13T07:33:23Z</time>
      </trkpt>
      <trkpt lat="44.16442" lon="5.00592">
        <ele>242.39</ele>
        <time>2017-05-13T07:33:34Z</time>
      </trkpt>
      <trkpt lat="44.16446" lon="5.00605">
        <ele>243.35</ele>
        <time>2017-05-13T07:33:45Z</time>
      </trkpt>
      <trkpt lat="44.1645" lon="5.00618">
        <ele>243.83</ele>
        <time>2017-05-13T07:33:55Z</time>
      </trkpt>
      <trkpt lat="44.16455" lon="5.0063">
        <ele>244.31</ele>
        <time>2017-05-13T07:34:06Z</time>
      </trkpt>
      <trkpt lat="44.16461" lon="5.00643">
        <ele>245.27</ele>
        <time>2017-05-13T07:34:19Z</time>
      </trkpt>
      <trkpt lat="44.16467" lon="5.00655">
        <ele>246.23</ele>
        <time>2017-05-13T07:34:31Z</time>
      </trkpt>
      <trkpt lat="44.16468" lon="5.00669">
        <ele>246.72</ele>
        <time>2017-05-13T07:34:41Z</time>
      </trkpt>
      <trkpt lat="44.16467" lon="5.00682">
        <ele>247.68</ele>
        <time>2017-05-13T07:34:52Z</time>
      </trkpt>
      <trkpt lat="44.1647" lon="5.00696">
        <ele>248.64</ele>
        <time>2017-05-13T07:35:04Z</time>
      </trkpt>
      <trkpt lat="44.16478" lon="5.00706">
        <ele>250.56</ele>
        <time>2017-05-13T07:35:15Z</time>
      </trkpt>
      <trkpt lat="44.16484" lon="5.00718">
        <ele>251.52</ele>
        <time>2017-05-13T07:35:25Z</time>
      </trkpt>
      <trkpt lat="44.16489" lon="5.00726">
        <ele>252.48</ele>
        <time>2017-05-13T07:35:38Z</time>
      </trkpt>
      <trkpt lat="44.16497" lon="5.00735">
        <ele>252</ele>
        <time>2017-05-13T07:35:47Z</time>
      </trkpt>
      <trkpt lat="44.16504" lon="5.00744">
        <ele>252.48</ele>
        <time>2017-05-13T07:35:56Z</time>
      </trkpt>
      <trkpt lat="44.16512" lon="5.00754">
        <ele>252.96</ele>
        <time>2017-05-13T07:36:07Z</time>
      </trkpt>
      <trkpt lat="44.16518" lon="5.00767">
        <ele>253.44</ele>
        <time>2017-05-13T07:36:18Z</time>
      </trkpt>
      <trkpt lat="44.16525" lon="5.00779">
        <ele>253.93</ele>
        <time>2017-05-13T07:36:28Z</time>
      </trkpt>
      <trkpt lat="44.16531" lon="5.00792">
        <ele>254.89</ele>
        <time>2017-05-13T07:36:38Z</time>
      </trkpt>
      <trkpt lat="44.16536" lon="5.00807">
        <ele>255.37</ele>
        <time>2017-05-13T07:36:49Z</time>
      </trkpt>
      <trkpt lat="44.16543" lon="5.00821">
        <ele>255.85</ele>
        <time>2017-05-13T07:37:00Z</time>
      </trkpt>
      <trkpt lat="44.16549" lon="5.00834">
        <ele>255.85</ele>
        <time>2017-05-13T07:37:11Z</time>
      </trkpt>
      <trkpt lat="44.16557" lon="5.00844">
        <ele>256.33</ele>
        <time>2017-05-13T07:38:36Z</time>
      </trkpt>
      <trkpt lat="44.16564" lon="5.00856">
        <ele>254.89</ele>
        <time>2017-05-13T07:39:04Z</time>
      </trkpt>
      <trkpt lat="44.16571" lon="5.00867">
        <ele>253.93</ele>
        <time>2017-05-13T07:39:16Z</time>
      </trkpt>
      <trkpt lat="44.16576" lon="5.00879">
        <ele>253.44</ele>
        <time>2017-05-13T07:39:29Z</time>
      </trkpt>
      <trkpt lat="44.16583" lon="5.00892">
        <ele>252.96</ele>
        <time>2017-05-13T07:39:43Z</time>
      </trkpt>
      <trkpt lat="44.16589" lon="5.00907">
        <ele>252</ele>
        <time>2017-05-13T07:39:56Z</time>
      </trkpt>
      <trkpt lat="44.16593" lon="5.00921">
        <ele>252.48</ele>
        <time>2017-05-13T07:40:08Z</time>
      </trkpt>
      <trkpt lat="44.16598" lon="5.00936">
        <ele>252.48</ele>
        <time>2017-05-13T07:40:20Z</time>
      </trkpt>
      <trkpt lat="44.16605" lon="5.00948">
        <ele>252.48</ele>
        <time>2017-05-13T07:40:32Z</time>
      </trkpt>
      <trkpt lat="44.16612" lon="5.0096">
        <ele>253.93</ele>
        <time>2017-05-13T07:40:46Z</time>
      </trkpt>
      <trkpt lat="44.16619" lon="5.00971">
        <ele>254.89</ele>
        <time>2017-05-13T07:41:00Z</time>
      </trkpt>
      <trkpt lat="44.16626" lon="5.00981">
        <ele>255.37</ele>
        <time>2017-05-13T07:41:14Z</time>
      </trkpt>
      <trkpt lat="44.16633" lon="5.00994">
        <ele>256.33</ele>
        <time>2017-05-13T07:41:29Z</time>
      </trkpt>
      <trkpt lat="44.16639" lon="5.01006">
        <ele>257.29</ele>
        <time>2017-05-13T07:41:42Z</time>
      </trkpt>
      <trkpt lat="44.16644" lon="5.01019">
        <ele>257.77</ele>
        <time>2017-05-13T07:41:53Z</time>
      </trkpt>
      <trkpt lat="44.1665" lon="5.01029">
        <ele>258.25</ele>
        <time>2017-05-13T07:42:03Z</time>
      </trkpt>
      <trkpt lat="44.16655" lon="5.01042">
        <ele>258.25</ele>
        <time>2017-05-13T07:42:14Z</time>
      </trkpt>
      <trkpt lat="44.16658" lon="5.01055">
        <ele>258.25</ele>
        <time>2017-05-13T07:42:25Z</time>
      </trkpt>
      <trkpt lat="44.16661" lon="5.01068">
        <ele>258.25</ele>
        <time>2017-05-13T07:42:35Z</time>
      </trkpt>
      <trkpt lat="44.16662" lon="5.0108">
        <ele>256.81</ele>
        <time>2017-05-13T07:42:45Z</time>
      </trkpt>
      <trkpt lat="44.16665" lon="5.01093">
        <ele>256.33</ele>
        <time>2017-05-13T07:42:56Z</time>
      </trkpt>
      <trkpt lat="44.16667" lon="5.01107">
        <ele>255.37</ele>
        <time>2017-05-13T07:43:07Z</time>
      </trkpt>
      <trkpt lat="44.16663" lon="5.01122">
        <ele>255.37</ele>
        <time>2017-05-13T07:43:21Z</time>
      </trkpt>
      <trkpt lat="44.16658" lon="5.01133">
        <ele>254.89</ele>
        <time>2017-05-13T07:43:30Z</time>
      </trkpt>
      <trkpt lat="44.16658" lon="5.01148">
        <ele>254.41</ele>
        <time>2017-05-13T07:43:43Z</time>
      </trkpt>
      <trkpt lat="44.16653" lon="5.01162">
        <ele>253.93</ele>
        <time>2017-05-13T07:43:53Z</time>
      </trkpt>
      <trkpt lat="44.16655" lon="5.01177">
        <ele>253.93</ele>
        <time>2017-05-13T07:44:05Z</time>
      </trkpt>
      <trkpt lat="44.16647" lon="5.01191">
        <ele>254.89</ele>
        <time>2017-05-13T07:44:18Z</time>
      </trkpt>
      <trkpt lat="44.16639" lon="5.01202">
        <ele>255.85</ele>
        <time>2017-05-13T07:44:28Z</time>
      </trkpt>
      <trkpt lat="44.1663" lon="5.01214">
        <ele>255.85</ele>
        <time>2017-05-13T07:44:37Z</time>
      </trkpt>
      <trkpt lat="44.16625" lon="5.01226">
        <ele>255.85</ele>
        <time>2017-05-13T07:44:46Z</time>
      </trkpt>
      <trkpt lat="44.16621" lon="5.0124">
        <ele>256.33</ele>
        <time>2017-05-13T07:44:56Z</time>
      </trkpt>
      <trkpt lat="44.16616" lon="5.01252">
        <ele>256.81</ele>
        <time>2017-05-13T07:45:06Z</time>
      </trkpt>
      <trkpt lat="44.16614" lon="5.01266">
        <ele>257.77</ele>
        <time>2017-05-13T07:45:17Z</time>
      </trkpt>
      <trkpt lat="44.1661" lon="5.01279">
        <ele>258.25</ele>
        <time>2017-05-13T07:45:28Z</time>
      </trkpt>
      <trkpt lat="44.16606" lon="5.01291">
        <ele>258.25</ele>
        <time>2017-05-13T07:45:37Z</time>
      </trkpt>
      <trkpt lat="44.16606" lon="5.01306">
        <ele>258.25</ele>
        <time>2017-05-13T07:45:48Z</time>
      </trkpt>
      <trkpt lat="44.16603" lon="5.01319">
        <ele>258.73</ele>
        <time>2017-05-13T07:45:59Z</time>
      </trkpt>
      <trkpt lat="44.166" lon="5.01333">
        <ele>259.21</ele>
        <time>2017-05-13T07:46:10Z</time>
      </trkpt>
      <trkpt lat="44.16598" lon="5.01347">
        <ele>260.17</ele>
        <time>2017-05-13T07:46:21Z</time>
      </trkpt>
      <trkpt lat="44.16597" lon="5.01362">
        <ele>260.17</ele>
        <time>2017-05-13T07:46:33Z</time>
      </trkpt>
      <trkpt lat="44.16594" lon="5.01381">
        <ele>259.21</ele>
        <time>2017-05-13T07:47:44Z</time>
      </trkpt>
      <trkpt lat="44.16574" lon="5.01407">
        <ele>261.14</ele>
        <time>2017-05-13T07:49:42Z</time>
      </trkpt>
      <trkpt lat="44.16562" lon="5.01409">
        <ele>261.62</ele>
        <time>2017-05-13T07:50:15Z</time>
      </trkpt>
      <trkpt lat="44.16554" lon="5.01417">
        <ele>262.58</ele>
        <time>2017-05-13T07:50:28Z</time>
      </trkpt>
      <trkpt lat="44.16545" lon="5.01433">
        <ele>263.54</ele>
        <time>2017-05-13T07:50:48Z</time>
      </trkpt>
      <trkpt lat="44.1653" lon="5.01447">
        <ele>266.9</ele>
        <time>2017-05-13T07:52:38Z</time>
      </trkpt>
      <trkpt lat="44.16519" lon="5.0147">
        <ele>269.79</ele>
        <time>2017-05-13T07:53:14Z</time>
      </trkpt>
      <trkpt lat="44.16505" lon="5.01487">
        <ele>272.67</ele>
        <time>2017-05-13T07:53:41Z</time>
      </trkpt>
      <trkpt lat="44.16463" lon="5.01511">
        <ele>278.44</ele>
        <time>2017-05-13T07:54:59Z</time>
      </trkpt>
      <trkpt lat="44.1644" lon="5.01517">
        <ele>279.4</ele>
        <time>2017-05-13T07:56:00Z</time>
      </trkpt>
      <trkpt lat="44.16406" lon="5.01527">
        <ele>279.88</ele>
        <time>2017-05-13T07:56:46Z</time>
      </trkpt>
      <trkpt lat="44.16372" lon="5.0154">
        <ele>282.77</ele>
        <time>2017-05-13T07:57:39Z</time>
      </trkpt>
      <trkpt lat="44.16355" lon="5.01549">
        <ele>283.73</ele>
        <time>2017-05-13T07:57:59Z</time>
      </trkpt>
      <trkpt lat="44.16337" lon="5.01552">
        <ele>285.17</ele>
        <time>2017-05-13T07:58:27Z</time>
      </trkpt>
      <trkpt lat="44.1632" lon="5.01556">
        <ele>286.13</ele>
        <time>2017-05-13T07:58:48Z</time>
      </trkpt>
      <trkpt lat="44.16301" lon="5.01563">
        <ele>287.57</ele>
        <time>2017-05-13T07:59:12Z</time>
      </trkpt>
      <trkpt lat="44.16252" lon="5.01588">
        <ele>290.94</ele>
        <time>2017-05-13T08:00:18Z</time>
      </trkpt>
      <trkpt lat="44.16237" lon="5.01591">
        <ele>291.9</ele>
        <time>2017-05-13T08:00:36Z</time>
      </trkpt>
      <trkpt lat="44.16222" lon="5.01589">
        <ele>293.34</ele>
        <time>2017-05-13T08:00:52Z</time>
      </trkpt>
      <trkpt lat="44.16208" lon="5.01589">
        <ele>293.34</ele>
        <time>2017-05-13T08:01:12Z</time>
      </trkpt>
      <trkpt lat="44.16193" lon="5.01593">
        <ele>293.82</ele>
        <time>2017-05-13T08:01:34Z</time>
      </trkpt>
      <trkpt lat="44.16175" lon="5.01601">
        <ele>295.26</ele>
        <time>2017-05-13T08:01:59Z</time>
      </trkpt>
      <trkpt lat="44.16151" lon="5.01608">
        <ele>297.67</ele>
        <time>2017-05-13T08:02:42Z</time>
      </trkpt>
      <trkpt lat="44.16137" lon="5.01612">
        <ele>298.63</ele>
        <time>2017-05-13T08:03:05Z</time>
      </trkpt>
      <trkpt lat="44.16119" lon="5.01619">
        <ele>299.11</ele>
        <time>2017-05-13T08:03:28Z</time>
      </trkpt>
      <trkpt lat="44.16106" lon="5.01624">
        <ele>301.03</ele>
        <time>2017-05-13T08:03:41Z</time>
      </trkpt>
      <trkpt lat="44.16095" lon="5.01631">
        <ele>301.99</ele>
        <time>2017-05-13T08:04:28Z</time>
      </trkpt>
      <trkpt lat="44.16079" lon="5.01637">
        <ele>302.95</ele>
        <time>2017-05-13T08:04:57Z</time>
      </trkpt>
      <trkpt lat="44.16063" lon="5.01641">
        <ele>303.91</ele>
        <time>2017-05-13T08:05:18Z</time>
      </trkpt>
      <trkpt lat="44.1605" lon="5.01649">
        <ele>304.88</ele>
        <time>2017-05-13T08:05:34Z</time>
      </trkpt>
      <trkpt lat="44.16037" lon="5.0166">
        <ele>306.32</ele>
        <time>2017-05-13T08:06:12Z</time>
      </trkpt>
      <trkpt lat="44.16026" lon="5.01668">
        <ele>308.72</ele>
        <time>2017-05-13T08:06:30Z</time>
      </trkpt>
      <trkpt lat="44.16018" lon="5.01674">
        <ele>309.68</ele>
        <time>2017-05-13T08:06:41Z</time>
      </trkpt>
      <trkpt lat="44.16009" lon="5.01683">
        <ele>310.16</ele>
        <time>2017-05-13T08:06:54Z</time>
      </trkpt>
      <trkpt lat="44.16001" lon="5.01689">
        <ele>310.16</ele>
        <time>2017-05-13T08:07:08Z</time>
      </trkpt>
      <trkpt lat="44.15984" lon="5.01702">
        <ele>312.57</ele>
        <time>2017-05-13T08:07:36Z</time>
      </trkpt>
      <trkpt lat="44.15972" lon="5.01713">
        <ele>313.53</ele>
        <time>2017-05-13T08:07:51Z</time>
      </trkpt>
      <trkpt lat="44.15957" lon="5.01721">
        <ele>315.45</ele>
        <time>2017-05-13T08:09:45Z</time>
      </trkpt>
      <trkpt lat="44.15961" lon="5.01728">
        <ele>316.41</ele>
        <time>2017-05-13T08:12:04Z</time>
      </trkpt>
      <trkpt lat="44.15968" lon="5.01733">
        <ele>316.89</ele>
        <time>2017-05-13T08:13:34Z</time>
      </trkpt>
      <trkpt lat="44.15976" lon="5.01737">
        <ele>315.45</ele>
        <time>2017-05-13T08:13:43Z</time>
      </trkpt>
      <trkpt lat="44.15985" lon="5.01742">
        <ele>315.45</ele>
        <time>2017-05-13T08:13:53Z</time>
      </trkpt>
      <trkpt lat="44.15992" lon="5.01752">
        <ele>314.97</ele>
        <time>2017-05-13T08:14:02Z</time>
      </trkpt>
      <trkpt lat="44.15997" lon="5.01765">
        <ele>314.01</ele>
        <time>2017-05-13T08:14:11Z</time>
      </trkpt>
      <trkpt lat="44.16" lon="5.0178">
        <ele>313.05</ele>
        <time>2017-05-13T08:14:21Z</time>
      </trkpt>
      <trkpt lat="44.16004" lon="5.01794">
        <ele>312.57</ele>
        <time>2017-05-13T08:14:32Z</time>
      </trkpt>
      <trkpt lat="44.16003" lon="5.01811">
        <ele>314.01</ele>
        <time>2017-05-13T08:14:50Z</time>
      </trkpt>
      <trkpt lat="44.15995" lon="5.01833">
        <ele>317.37</ele>
        <time>2017-05-13T08:15:13Z</time>
      </trkpt>
      <trkpt lat="44.15989" lon="5.01849">
        <ele>319.3</ele>
        <time>2017-05-13T08:15:30Z</time>
      </trkpt>
      <trkpt lat="44.15993" lon="5.0186">
        <ele>324.58</ele>
        <time>2017-05-13T08:18:47Z</time>
      </trkpt>
      <trkpt lat="44.16003" lon="5.01864">
        <ele>327.95</ele>
        <time>2017-05-13T08:19:03Z</time>
      </trkpt>
      <trkpt lat="44.16014" lon="5.01861">
        <ele>331.31</ele>
        <time>2017-05-13T08:19:25Z</time>
      </trkpt>
      <trkpt lat="44.16023" lon="5.0187">
        <ele>333.71</ele>
        <time>2017-05-13T08:19:42Z</time>
      </trkpt>
      <trkpt lat="44.16022" lon="5.01891">
        <ele>335.16</ele>
        <time>2017-05-13T08:19:56Z</time>
      </trkpt>
      <trkpt lat="44.16019" lon="5.01905">
        <ele>336.6</ele>
        <time>2017-05-13T08:20:15Z</time>
      </trkpt>
      <trkpt lat="44.16018" lon="5.01919">
        <ele>338.52</ele>
        <time>2017-05-13T08:20:26Z</time>
      </trkpt>
      <trkpt lat="44.16013" lon="5.01932">
        <ele>340.44</ele>
        <time>2017-05-13T08:20:39Z</time>
      </trkpt>
      <trkpt lat="44.16007" lon="5.01945">
        <ele>342.37</ele>
        <time>2017-05-13T08:20:52Z</time>
      </trkpt>
      <trkpt lat="44.16" lon="5.01957">
        <ele>344.29</ele>
        <time>2017-05-13T08:21:09Z</time>
      </trkpt>
      <trkpt lat="44.15994" lon="5.01973">
        <ele>346.69</ele>
        <time>2017-05-13T08:21:21Z</time>
      </trkpt>
      <trkpt lat="44.1599" lon="5.01988">
        <ele>348.13</ele>
        <time>2017-05-13T08:21:34Z</time>
      </trkpt>
      <trkpt lat="44.15986" lon="5.02004">
        <ele>349.1</ele>
        <time>2017-05-13T08:21:46Z</time>
      </trkpt>
      <trkpt lat="44.15983" lon="5.02018">
        <ele>350.06</ele>
        <time>2017-05-13T08:21:56Z</time>
      </trkpt>
      <trkpt lat="44.15979" lon="5.02033">
        <ele>350.54</ele>
        <time>2017-05-13T08:22:06Z</time>
      </trkpt>
      <trkpt lat="44.15973" lon="5.02046">
        <ele>351.5</ele>
        <time>2017-05-13T08:22:17Z</time>
      </trkpt>
      <trkpt lat="44.15972" lon="5.02061">
        <ele>351.98</ele>
        <time>2017-05-13T08:22:28Z</time>
      </trkpt>
      <trkpt lat="44.15971" lon="5.02079">
        <ele>352.94</ele>
        <time>2017-05-13T08:22:58Z</time>
      </trkpt>
      <trkpt lat="44.15964" lon="5.02093">
        <ele>354.38</ele>
        <time>2017-05-13T08:23:09Z</time>
      </trkpt>
      <trkpt lat="44.1596" lon="5.02107">
        <ele>355.83</ele>
        <time>2017-05-13T08:23:26Z</time>
      </trkpt>
      <trkpt lat="44.15953" lon="5.02119">
        <ele>356.31</ele>
        <time>2017-05-13T08:23:57Z</time>
      </trkpt>
      <trkpt lat="44.15951" lon="5.0213">
        <ele>357.75</ele>
        <time>2017-05-13T08:24:22Z</time>
      </trkpt>
      <trkpt lat="44.15945" lon="5.02145">
        <ele>359.67</ele>
        <time>2017-05-13T08:24:35Z</time>
      </trkpt>
      <trkpt lat="44.1594" lon="5.02157">
        <ele>361.11</ele>
        <time>2017-05-13T08:24:45Z</time>
      </trkpt>
      <trkpt lat="44.15938" lon="5.02173">
        <ele>363.04</ele>
        <time>2017-05-13T08:24:56Z</time>
      </trkpt>
      <trkpt lat="44.15935" lon="5.0219">
        <ele>365.44</ele>
        <time>2017-05-13T08:25:07Z</time>
      </trkpt>
      <trkpt lat="44.15934" lon="5.02205">
        <ele>366.4</ele>
        <time>2017-05-13T08:25:17Z</time>
      </trkpt>
      <trkpt lat="44.1593" lon="5.0222">
        <ele>368.8</ele>
        <time>2017-05-13T08:25:28Z</time>
      </trkpt>
      <trkpt lat="44.15925" lon="5.02234">
        <ele>370.73</ele>
        <time>2017-05-13T08:25:39Z</time>
      </trkpt>
      <trkpt lat="44.1592" lon="5.0225">
        <ele>372.65</ele>
        <time>2017-05-13T08:25:53Z</time>
      </trkpt>
      <trkpt lat="44.15916" lon="5.02264">
        <ele>374.57</ele>
        <time>2017-05-13T08:26:04Z</time>
      </trkpt>
      <trkpt lat="44.15913" lon="5.02279">
        <ele>376.49</ele>
        <time>2017-05-13T08:26:16Z</time>
      </trkpt>
      <trkpt lat="44.15907" lon="5.02293">
        <ele>377.94</ele>
        <time>2017-05-13T08:26:33Z</time>
      </trkpt>
      <trkpt lat="44.15899" lon="5.02307">
        <ele>380.82</ele>
        <time>2017-05-13T08:26:50Z</time>
      </trkpt>
      <trkpt lat="44.15894" lon="5.02329">
        <ele>382.74</ele>
        <time>2017-05-13T08:27:43Z</time>
      </trkpt>
      <trkpt lat="44.15888" lon="5.02342">
        <ele>385.63</ele>
        <time>2017-05-13T08:28:14Z</time>
      </trkpt>
      <trkpt lat="44.15889" lon="5.02359">
        <ele>387.55</ele>
        <time>2017-05-13T08:28:27Z</time>
      </trkpt>
      <trkpt lat="44.15893" lon="5.02374">
        <ele>388.99</ele>
        <time>2017-05-13T08:28:39Z</time>
      </trkpt>
      <trkpt lat="44.15896" lon="5.0239">
        <ele>390.43</ele>
        <time>2017-05-13T08:28:49Z</time>
      </trkpt>
      <trkpt lat="44.15896" lon="5.02406">
        <ele>391.87</ele>
        <time>2017-05-13T08:28:59Z</time>
      </trkpt>
      <trkpt lat="44.15894" lon="5.02421">
        <ele>392.84</ele>
        <time>2017-05-13T08:29:09Z</time>
      </trkpt>
      <trkpt lat="44.15889" lon="5.02434">
        <ele>393.32</ele>
        <time>2017-05-13T08:29:19Z</time>
      </trkpt>
      <trkpt lat="44.15881" lon="5.0244">
        <ele>394.76</ele>
        <time>2017-05-13T08:29:29Z</time>
      </trkpt>
      <trkpt lat="44.15879" lon="5.02442">
        <ele>394.76</ele>
        <time>2017-05-13T08:33:09Z</time>
      </trkpt>
      <trkpt lat="44.15879" lon="5.02447">
        <ele>396.2</ele>
        <time>2017-05-13T08:35:51Z</time>
      </trkpt>
      <trkpt lat="44.15866" lon="5.02445">
        <ele>398.6</ele>
        <time>2017-05-13T08:36:22Z</time>
      </trkpt>
      <trkpt lat="44.15853" lon="5.02438">
        <ele>401.97</ele>
        <time>2017-05-13T08:36:52Z</time>
      </trkpt>
      <trkpt lat="44.15835" lon="5.02427">
        <ele>405.81</ele>
        <time>2017-05-13T08:37:23Z</time>
      </trkpt>
      <trkpt lat="44.15821" lon="5.02428">
        <ele>411.1</ele>
        <time>2017-05-13T08:38:17Z</time>
      </trkpt>
      <trkpt lat="44.15804" lon="5.02444">
        <ele>418.31</ele>
        <time>2017-05-13T08:39:30Z</time>
      </trkpt>
      <trkpt lat="44.15787" lon="5.02442">
        <ele>423.6</ele>
        <time>2017-05-13T08:40:03Z</time>
      </trkpt>
      <trkpt lat="44.1578" lon="5.02428">
        <ele>425.04</ele>
        <time>2017-05-13T08:40:21Z</time>
      </trkpt>
      <trkpt lat="44.15774" lon="5.02416">
        <ele>425.04</ele>
        <time>2017-05-13T08:40:34Z</time>
      </trkpt>
      <trkpt lat="44.15764" lon="5.02405">
        <ele>427.44</ele>
        <time>2017-05-13T08:40:49Z</time>
      </trkpt>
      <trkpt lat="44.1575" lon="5.02394">
        <ele>431.29</ele>
        <time>2017-05-13T08:41:10Z</time>
      </trkpt>
      <trkpt lat="44.15734" lon="5.0239">
        <ele>438.5</ele>
        <time>2017-05-13T08:42:40Z</time>
      </trkpt>
      <trkpt lat="44.15726" lon="5.02404">
        <ele>442.82</ele>
        <time>2017-05-13T08:43:12Z</time>
      </trkpt>
      <trkpt lat="44.1573" lon="5.02421">
        <ele>444.27</ele>
        <time>2017-05-13T08:43:29Z</time>
      </trkpt>
      <trkpt lat="44.15728" lon="5.02448">
        <ele>447.63</ele>
        <time>2017-05-13T08:44:00Z</time>
      </trkpt>
      <trkpt lat="44.15725" lon="5.02468">
        <ele>450.03</ele>
        <time>2017-05-13T08:44:22Z</time>
      </trkpt>
      <trkpt lat="44.1572" lon="5.02483">
        <ele>453.4</ele>
        <time>2017-05-13T08:44:40Z</time>
      </trkpt>
      <trkpt lat="44.15717" lon="5.02503">
        <ele>454.84</ele>
        <time>2017-05-13T08:45:01Z</time>
      </trkpt>
      <trkpt lat="44.15707" lon="5.02526">
        <ele>460.61</ele>
        <time>2017-05-13T08:45:42Z</time>
      </trkpt>
      <trkpt lat="44.15698" lon="5.02552">
        <ele>466.38</ele>
        <time>2017-05-13T08:46:59Z</time>
      </trkpt>
      <trkpt lat="44.15693" lon="5.02565">
        <ele>469.74</ele>
        <time>2017-05-13T08:47:26Z</time>
      </trkpt>
      <trkpt lat="44.15686" lon="5.02576">
        <ele>473.11</ele>
        <time>2017-05-13T08:47:45Z</time>
      </trkpt>
      <trkpt lat="44.15684" lon="5.02589">
        <ele>475.03</ele>
        <time>2017-05-13T08:49:42Z</time>
      </trkpt>
      <trkpt lat="44.15673" lon="5.02607">
        <ele>480.8</ele>
        <time>2017-05-13T08:50:14Z</time>
      </trkpt>
      <trkpt lat="44.15666" lon="5.0262">
        <ele>483.2</ele>
        <time>2017-05-13T08:50:32Z</time>
      </trkpt>
      <trkpt lat="44.15656" lon="5.02634">
        <ele>487.53</ele>
        <time>2017-05-13T08:51:02Z</time>
      </trkpt>
      <trkpt lat="44.15642" lon="5.0266">
        <ele>495.22</ele>
        <time>2017-05-13T08:53:02Z</time>
      </trkpt>
      <trkpt lat="44.15636" lon="5.02668">
        <ele>498.58</ele>
        <time>2017-05-13T08:53:31Z</time>
      </trkpt>
      <trkpt lat="44.1563" lon="5.02676">
        <ele>501.46</ele>
        <time>2017-05-13T08:55:01Z</time>
      </trkpt>
      <trkpt lat="44.15625" lon="5.02687">
        <ele>504.83</ele>
        <time>2017-05-13T08:55:32Z</time>
      </trkpt>
      <trkpt lat="44.15622" lon="5.02701">
        <ele>507.71</ele>
        <time>2017-05-13T08:55:46Z</time>
      </trkpt>
      <trkpt lat="44.15618" lon="5.02709">
        <ele>509.64</ele>
        <time>2017-05-13T08:56:26Z</time>
      </trkpt>
      <trkpt lat="44.15612" lon="5.02724">
        <ele>513.48</ele>
        <time>2017-05-13T08:57:25Z</time>
      </trkpt>
      <trkpt lat="44.15607" lon="5.02735">
        <ele>516.37</ele>
        <time>2017-05-13T08:57:51Z</time>
      </trkpt>
      <trkpt lat="44.15604" lon="5.02747">
        <ele>519.25</ele>
        <time>2017-05-13T08:58:36Z</time>
      </trkpt>
      <trkpt lat="44.15604" lon="5.02764">
        <ele>523.09</ele>
        <time>2017-05-13T08:58:55Z</time>
      </trkpt>
      <trkpt lat="44.15592" lon="5.02759">
        <ele>531.75</ele>
        <time>2017-05-13T09:00:27Z</time>
      </trkpt>
      <trkpt lat="44.15589" lon="5.02746">
        <ele>536.55</ele>
        <time>2017-05-13T09:01:58Z</time>
      </trkpt>
      <trkpt lat="44.15582" lon="5.0275">
        <ele>540.88</ele>
        <time>2017-05-13T09:02:31Z</time>
      </trkpt>
      <trkpt lat="44.15576" lon="5.02754">
        <ele>544.72</ele>
        <time>2017-05-13T09:05:55Z</time>
      </trkpt>
      <trkpt lat="44.15572" lon="5.02743">
        <ele>546.65</ele>
        <time>2017-05-13T09:06:04Z</time>
      </trkpt>
      <trkpt lat="44.15567" lon="5.02738">
        <ele>547.61</ele>
        <time>2017-05-13T09:08:16Z</time>
      </trkpt>
      <trkpt lat="44.15573" lon="5.02728">
        <ele>550.01</ele>
        <time>2017-05-13T09:11:08Z</time>
      </trkpt>
      <trkpt lat="44.15572" lon="5.02715">
        <ele>552.9</ele>
        <time>2017-05-13T09:11:21Z</time>
      </trkpt>
      <trkpt lat="44.15575" lon="5.02698">
        <ele>556.74</ele>
        <time>2017-05-13T09:11:48Z</time>
      </trkpt>
      <trkpt lat="44.15586" lon="5.02687">
        <ele>561.07</ele>
        <time>2017-05-13T09:13:31Z</time>
      </trkpt>
      <trkpt lat="44.15581" lon="5.02678">
        <ele>565.39</ele>
        <time>2017-05-13T09:13:59Z</time>
      </trkpt>
      <trkpt lat="44.15581" lon="5.02666">
        <ele>571.64</ele>
        <time>2017-05-13T09:18:06Z</time>
      </trkpt>
      <trkpt lat="44.15579" lon="5.0266">
        <ele>573.08</ele>
        <time>2017-05-13T09:19:26Z</time>
      </trkpt>
      <trkpt lat="44.15577" lon="5.02653">
        <ele>573.56</ele>
        <time>2017-05-13T09:20:57Z</time>
      </trkpt>
      <trkpt lat="44.15578" lon="5.02641">
        <ele>576.93</ele>
        <time>2017-05-13T09:21:39Z</time>
      </trkpt>
      <trkpt lat="44.15573" lon="5.02627">
        <ele>577.89</ele>
        <time>2017-05-13T09:22:04Z</time>
      </trkpt>
      <trkpt lat="44.15568" lon="5.02614">
        <ele>579.33</ele>
        <time>2017-05-13T09:22:30Z</time>
      </trkpt>
      <trkpt lat="44.15567" lon="5.02599">
        <ele>577.89</ele>
        <time>2017-05-13T09:22:49Z</time>
      </trkpt>
      <trkpt lat="44.15563" lon="5.02586">
        <ele>579.33</ele>
        <time>2017-05-13T09:23:04Z</time>
      </trkpt>
      <trkpt lat="44.15559" lon="5.02579">
        <ele>579.81</ele>
        <time>2017-05-13T09:24:28Z</time>
      </trkpt>
      <trkpt lat="44.15559" lon="5.02565">
        <ele>579.81</ele>
        <time>2017-05-13T09:24:44Z</time>
      </trkpt>
      <trkpt lat="44.15556" lon="5.02553">
        <ele>579.81</ele>
        <time>2017-05-13T09:24:56Z</time>
      </trkpt>
      <trkpt lat="44.15552" lon="5.02536">
        <ele>582.22</ele>
        <time>2017-05-13T09:25:21Z</time>
      </trkpt>
      <trkpt lat="44.15548" lon="5.02527">
        <ele>584.62</ele>
        <time>2017-05-13T09:27:44Z</time>
      </trkpt>
      <trkpt lat="44.15548" lon="5.02507">
        <ele>582.22</ele>
        <time>2017-05-13T09:30:26Z</time>
      </trkpt>
      <trkpt lat="44.15545" lon="5.02492">
        <ele>583.18</ele>
        <time>2017-05-13T09:31:06Z</time>
      </trkpt>
      <trkpt lat="44.15543" lon="5.02479">
        <ele>581.73</ele>
        <time>2017-05-13T09:31:21Z</time>
      </trkpt>
      <trkpt lat="44.15539" lon="5.02465">
        <ele>582.7</ele>
        <time>2017-05-13T09:31:39Z</time>
      </trkpt>
      <trkpt lat="44.15539" lon="5.02451">
        <ele>582.22</ele>
        <time>2017-05-13T09:31:50Z</time>
      </trkpt>
      <trkpt lat="44.15533" lon="5.02438">
        <ele>580.77</ele>
        <time>2017-05-13T09:32:07Z</time>
      </trkpt>
      <trkpt lat="44.1553" lon="5.02424">
        <ele>579.81</ele>
        <time>2017-05-13T09:32:19Z</time>
      </trkpt>
      <trkpt lat="44.15526" lon="5.0241">
        <ele>579.81</ele>
        <time>2017-05-13T09:32:33Z</time>
      </trkpt>
      <trkpt lat="44.1552" lon="5.02396">
        <ele>579.33</ele>
        <time>2017-05-13T09:32:47Z</time>
      </trkpt>
      <trkpt lat="44.15517" lon="5.02381">
        <ele>579.33</ele>
        <time>2017-05-13T09:33:03Z</time>
      </trkpt>
      <trkpt lat="44.15514" lon="5.02369">
        <ele>576.45</ele>
        <time>2017-05-13T09:33:31Z</time>
      </trkpt>
      <trkpt lat="44.15514" lon="5.02348">
        <ele>579.33</ele>
        <time>2017-05-13T09:34:14Z</time>
      </trkpt>
      <trkpt lat="44.1552" lon="5.02333">
        <ele>583.18</ele>
        <time>2017-05-13T09:35:04Z</time>
      </trkpt>
      <trkpt lat="44.15521" lon="5.02321">
        <ele>585.1</ele>
        <time>2017-05-13T09:35:31Z</time>
      </trkpt>
      <trkpt lat="44.15516" lon="5.02307">
        <ele>585.1</ele>
        <time>2017-05-13T09:35:58Z</time>
      </trkpt>
      <trkpt lat="44.15515" lon="5.02293">
        <ele>583.66</ele>
        <time>2017-05-13T09:36:14Z</time>
      </trkpt>
      <trkpt lat="44.15511" lon="5.02278">
        <ele>582.7</ele>
        <time>2017-05-13T09:36:30Z</time>
      </trkpt>
      <trkpt lat="44.1551" lon="5.02266">
        <ele>582.7</ele>
        <time>2017-05-13T09:37:00Z</time>
      </trkpt>
      <trkpt lat="44.15506" lon="5.02252">
        <ele>580.77</ele>
        <time>2017-05-13T09:37:24Z</time>
      </trkpt>
      <trkpt lat="44.15503" lon="5.02233">
        <ele>580.77</ele>
        <time>2017-05-13T09:37:53Z</time>
      </trkpt>
      <trkpt lat="44.15498" lon="5.02223">
        <ele>578.85</ele>
        <time>2017-05-13T09:38:46Z</time>
      </trkpt>
      <trkpt lat="44.15496" lon="5.02208">
        <ele>574.53</ele>
        <time>2017-05-13T09:39:51Z</time>
      </trkpt>
      <trkpt lat="44.1549" lon="5.02192">
        <ele>571.16</ele>
        <time>2017-05-13T09:40:30Z</time>
      </trkpt>
      <trkpt lat="44.15487" lon="5.02177">
        <ele>568.76</ele>
        <time>2017-05-13T09:41:13Z</time>
      </trkpt>
      <trkpt lat="44.15483" lon="5.02163">
        <ele>565.39</ele>
        <time>2017-05-13T09:41:47Z</time>
      </trkpt>
      <trkpt lat="44.15476" lon="5.02144">
        <ele>559.62</ele>
        <time>2017-05-13T09:42:27Z</time>
      </trkpt>
      <trkpt lat="44.15471" lon="5.02125">
        <ele>556.74</ele>
        <time>2017-05-13T09:43:11Z</time>
      </trkpt>
      <trkpt lat="44.15462" lon="5.02114">
        <ele>551.45</ele>
        <time>2017-05-13T09:44:59Z</time>
      </trkpt>
      <trkpt lat="44.15455" lon="5.02107">
        <ele>547.13</ele>
        <time>2017-05-13T09:46:17Z</time>
      </trkpt>
      <trkpt lat="44.15452" lon="5.02096">
        <ele>545.2</ele>
        <time>2017-05-13T09:46:49Z</time>
      </trkpt>
      <trkpt lat="44.15445" lon="5.02087">
        <ele>539.44</ele>
        <time>2017-05-13T09:47:32Z</time>
      </trkpt>
      <trkpt lat="44.15444" lon="5.02074">
        <ele>537.03</ele>
        <time>2017-05-13T09:47:53Z</time>
      </trkpt>
      <trkpt lat="44.15441" lon="5.02053">
        <ele>537.51</ele>
        <time>2017-05-13T09:48:55Z</time>
      </trkpt>
      <trkpt lat="44.15436" lon="5.02036">
        <ele>534.63</ele>
        <time>2017-05-13T09:49:54Z</time>
      </trkpt>
      <trkpt lat="44.15436" lon="5.02022">
        <ele>536.55</ele>
        <time>2017-05-13T09:50:11Z</time>
      </trkpt>
      <trkpt lat="44.15429" lon="5.02007">
        <ele>531.75</ele>
        <time>2017-05-13T09:50:57Z</time>
      </trkpt>
      <trkpt lat="44.15428" lon="5.01992">
        <ele>529.82</ele>
        <time>2017-05-13T09:51:15Z</time>
      </trkpt>
      <trkpt lat="44.15422" lon="5.01979">
        <ele>526.46</ele>
        <time>2017-05-13T09:51:38Z</time>
      </trkpt>
      <trkpt lat="44.15416" lon="5.01969">
        <ele>523.09</ele>
        <time>2017-05-13T09:51:58Z</time>
      </trkpt>
      <trkpt lat="44.15408" lon="5.01957">
        <ele>518.29</ele>
        <time>2017-05-13T09:52:55Z</time>
      </trkpt>
      <trkpt lat="44.15403" lon="5.01948">
        <ele>514.44</ele>
        <time>2017-05-13T09:53:59Z</time>
      </trkpt>
      <trkpt lat="44.15394" lon="5.01933">
        <ele>505.79</ele>
        <time>2017-05-13T09:55:36Z</time>
      </trkpt>
      <trkpt lat="44.15386" lon="5.01925">
        <ele>500.02</ele>
        <time>2017-05-13T09:56:47Z</time>
      </trkpt>
      <trkpt lat="44.1538" lon="5.01921">
        <ele>496.18</ele>
        <time>2017-05-13T09:57:24Z</time>
      </trkpt>
      <trkpt lat="44.15374" lon="5.01943">
        <ele>490.41</ele>
        <time>2017-05-13T09:58:02Z</time>
      </trkpt>
      <trkpt lat="44.15367" lon="5.0194">
        <ele>485.6</ele>
        <time>2017-05-13T09:58:37Z</time>
      </trkpt>
      <trkpt lat="44.15358" lon="5.01928">
        <ele>482.24</ele>
        <time>2017-05-13T09:59:09Z</time>
      </trkpt>
      <trkpt lat="44.1535" lon="5.01931">
        <ele>477.43</ele>
        <time>2017-05-13T10:00:06Z</time>
      </trkpt>
      <trkpt lat="44.15344" lon="5.01939">
        <ele>473.11</ele>
        <time>2017-05-13T10:01:01Z</time>
      </trkpt>
      <trkpt lat="44.15334" lon="5.01946">
        <ele>466.86</ele>
        <time>2017-05-13T10:01:46Z</time>
      </trkpt>
      <trkpt lat="44.1532" lon="5.01951">
        <ele>460.61</ele>
        <time>2017-05-13T10:02:32Z</time>
      </trkpt>
      <trkpt lat="44.15308" lon="5.01951">
        <ele>455.32</ele>
        <time>2017-05-13T10:03:21Z</time>
      </trkpt>
      <trkpt lat="44.15304" lon="5.01938">
        <ele>453.4</ele>
        <time>2017-05-13T10:03:43Z</time>
      </trkpt>
      <trkpt lat="44.15297" lon="5.01941">
        <ele>451</ele>
        <time>2017-05-13T10:03:57Z</time>
      </trkpt>
      <trkpt lat="44.15294" lon="5.01952">
        <ele>450.52</ele>
        <time>2017-05-13T10:04:07Z</time>
      </trkpt>
      <trkpt lat="44.15292" lon="5.01962">
        <ele>450.52</ele>
        <time>2017-05-13T10:04:18Z</time>
      </trkpt>
      <trkpt lat="44.15283" lon="5.01974">
        <ele>450.52</ele>
        <time>2017-05-13T10:05:39Z</time>
      </trkpt>
      <trkpt lat="44.15276" lon="5.01983">
        <ele>449.55</ele>
        <time>2017-05-13T10:05:57Z</time>
      </trkpt>
      <trkpt lat="44.15268" lon="5.01991">
        <ele>448.59</ele>
        <time>2017-05-13T10:06:10Z</time>
      </trkpt>
      <trkpt lat="44.15258" lon="5.01996">
        <ele>448.11</ele>
        <time>2017-05-13T10:06:23Z</time>
      </trkpt>
      <trkpt lat="44.15248" lon="5.01997">
        <ele>448.11</ele>
        <time>2017-05-13T10:06:34Z</time>
      </trkpt>
      <trkpt lat="44.15237" lon="5.01999">
        <ele>448.11</ele>
        <time>2017-05-13T10:06:45Z</time>
      </trkpt>
      <trkpt lat="44.15226" lon="5.02005">
        <ele>448.11</ele>
        <time>2017-05-13T10:06:57Z</time>
      </trkpt>
      <trkpt lat="44.1522" lon="5.02006">
        <ele>448.59</ele>
        <time>2017-05-13T10:39:59Z</time>
      </trkpt>
      <trkpt lat="44.15213" lon="5.02009">
        <ele>450.52</ele>
        <time>2017-05-13T10:44:57Z</time>
      </trkpt>
      <trkpt lat="44.15213" lon="5.02016">
        <ele>455.32</ele>
        <time>2017-05-13T10:45:54Z</time>
      </trkpt>
      <trkpt lat="44.15209" lon="5.02062">
        <ele>465.9</ele>
        <time>2017-05-13T10:47:28Z</time>
      </trkpt>
      <trkpt lat="44.15207" lon="5.02097">
        <ele>466.38</ele>
        <time>2017-05-13T10:47:55Z</time>
      </trkpt>
      <trkpt lat="44.15207" lon="5.02119">
        <ele>465.9</ele>
        <time>2017-05-13T10:48:26Z</time>
      </trkpt>
      <trkpt lat="44.15213" lon="5.02129">
        <ele>463.97</ele>
        <time>2017-05-13T10:48:48Z</time>
      </trkpt>
      <trkpt lat="44.15217" lon="5.02143">
        <ele>462.53</ele>
        <time>2017-05-13T10:49:04Z</time>
      </trkpt>
      <trkpt lat="44.15213" lon="5.02157">
        <ele>461.09</ele>
        <time>2017-05-13T10:49:17Z</time>
      </trkpt>
      <trkpt lat="44.1521" lon="5.02171">
        <ele>459.65</ele>
        <time>2017-05-13T10:49:32Z</time>
      </trkpt>
      <trkpt lat="44.15205" lon="5.02184">
        <ele>459.17</ele>
        <time>2017-05-13T10:49:45Z</time>
      </trkpt>
      <trkpt lat="44.152" lon="5.02202">
        <ele>457.72</ele>
        <time>2017-05-13T10:50:01Z</time>
      </trkpt>
      <trkpt lat="44.15194" lon="5.02217">
        <ele>456.76</ele>
        <time>2017-05-13T10:50:15Z</time>
      </trkpt>
      <trkpt lat="44.15188" lon="5.02238">
        <ele>455.32</ele>
        <time>2017-05-13T10:50:46Z</time>
      </trkpt>
      <trkpt lat="44.15185" lon="5.02251">
        <ele>454.36</ele>
        <time>2017-05-13T10:50:58Z</time>
      </trkpt>
      <trkpt lat="44.15182" lon="5.02266">
        <ele>452.92</ele>
        <time>2017-05-13T10:51:11Z</time>
      </trkpt>
      <trkpt lat="44.15178" lon="5.0228">
        <ele>451.96</ele>
        <time>2017-05-13T10:51:24Z</time>
      </trkpt>
      <trkpt lat="44.15175" lon="5.02299">
        <ele>450.03</ele>
        <time>2017-05-13T10:51:38Z</time>
      </trkpt>
      <trkpt lat="44.1517" lon="5.02314">
        <ele>448.59</ele>
        <time>2017-05-13T10:51:54Z</time>
      </trkpt>
      <trkpt lat="44.15166" lon="5.02332">
        <ele>447.63</ele>
        <time>2017-05-13T10:52:09Z</time>
      </trkpt>
      <trkpt lat="44.15162" lon="5.02347">
        <ele>446.19</ele>
        <time>2017-05-13T10:52:22Z</time>
      </trkpt>
      <trkpt lat="44.15158" lon="5.02363">
        <ele>444.75</ele>
        <time>2017-05-13T10:52:38Z</time>
      </trkpt>
      <trkpt lat="44.15157" lon="5.0238">
        <ele>443.31</ele>
        <time>2017-05-13T10:52:53Z</time>
      </trkpt>
      <trkpt lat="44.15152" lon="5.02399">
        <ele>442.82</ele>
        <time>2017-05-13T10:53:09Z</time>
      </trkpt>
      <trkpt lat="44.15152" lon="5.02416">
        <ele>441.86</ele>
        <time>2017-05-13T10:53:23Z</time>
      </trkpt>
      <trkpt lat="44.15146" lon="5.02431">
        <ele>441.86</ele>
        <time>2017-05-13T10:53:36Z</time>
      </trkpt>
      <trkpt lat="44.15142" lon="5.0245">
        <ele>441.86</ele>
        <time>2017-05-13T10:53:50Z</time>
      </trkpt>
      <trkpt lat="44.1514" lon="5.02467">
        <ele>440.42</ele>
        <time>2017-05-13T10:54:02Z</time>
      </trkpt>
      <trkpt lat="44.15138" lon="5.02483">
        <ele>439.46</ele>
        <time>2017-05-13T10:54:15Z</time>
      </trkpt>
      <trkpt lat="44.15129" lon="5.02494">
        <ele>440.9</ele>
        <time>2017-05-13T10:54:28Z</time>
      </trkpt>
      <trkpt lat="44.15122" lon="5.02508">
        <ele>442.34</ele>
        <time>2017-05-13T10:55:03Z</time>
      </trkpt>
      <trkpt lat="44.15115" lon="5.0252">
        <ele>443.79</ele>
        <time>2017-05-13T10:55:16Z</time>
      </trkpt>
      <trkpt lat="44.15103" lon="5.02527">
        <ele>447.15</ele>
        <time>2017-05-13T10:55:39Z</time>
      </trkpt>
      <trkpt lat="44.15097" lon="5.02534">
        <ele>450.03</ele>
        <time>2017-05-13T10:55:56Z</time>
      </trkpt>
      <trkpt lat="44.15095" lon="5.02548">
        <ele>450.03</ele>
        <time>2017-05-13T10:56:09Z</time>
      </trkpt>
      <trkpt lat="44.15092" lon="5.02559">
        <ele>449.55</ele>
        <time>2017-05-13T10:56:29Z</time>
      </trkpt>
      <trkpt lat="44.15091" lon="5.02574">
        <ele>449.55</ele>
        <time>2017-05-13T10:56:41Z</time>
      </trkpt>
      <trkpt lat="44.1509" lon="5.02588">
        <ele>449.55</ele>
        <time>2017-05-13T10:56:53Z</time>
      </trkpt>
      <trkpt lat="44.1508" lon="5.02601">
        <ele>450.03</ele>
        <time>2017-05-13T10:57:36Z</time>
      </trkpt>
      <trkpt lat="44.15081" lon="5.02619">
        <ele>449.07</ele>
        <time>2017-05-13T10:57:56Z</time>
      </trkpt>
      <trkpt lat="44.15077" lon="5.02635">
        <ele>449.07</ele>
        <time>2017-05-13T10:58:10Z</time>
      </trkpt>
      <trkpt lat="44.15074" lon="5.02649">
        <ele>448.11</ele>
        <time>2017-05-13T10:58:31Z</time>
      </trkpt>
      <trkpt lat="44.1507" lon="5.02661">
        <ele>448.11</ele>
        <time>2017-05-13T10:58:49Z</time>
      </trkpt>
      <trkpt lat="44.15065" lon="5.02672">
        <ele>448.11</ele>
        <time>2017-05-13T10:58:59Z</time>
      </trkpt>
      <trkpt lat="44.1506" lon="5.02685">
        <ele>448.11</ele>
        <time>2017-05-13T10:59:08Z</time>
      </trkpt>
      <trkpt lat="44.15057" lon="5.02697">
        <ele>448.11</ele>
        <time>2017-05-13T10:59:22Z</time>
      </trkpt>
      <trkpt lat="44.15052" lon="5.0271">
        <ele>447.63</ele>
        <time>2017-05-13T10:59:33Z</time>
      </trkpt>
      <trkpt lat="44.15049" lon="5.02721">
        <ele>447.63</ele>
        <time>2017-05-13T10:59:51Z</time>
      </trkpt>
      <trkpt lat="44.15045" lon="5.02734">
        <ele>447.15</ele>
        <time>2017-05-13T11:00:01Z</time>
      </trkpt>
      <trkpt lat="44.15041" lon="5.02745">
        <ele>447.15</ele>
        <time>2017-05-13T11:00:12Z</time>
      </trkpt>
      <trkpt lat="44.15041" lon="5.02757">
        <ele>446.67</ele>
        <time>2017-05-13T11:00:45Z</time>
      </trkpt>
      <trkpt lat="44.15038" lon="5.02771">
        <ele>446.67</ele>
        <time>2017-05-13T11:00:54Z</time>
      </trkpt>
      <trkpt lat="44.15035" lon="5.02785">
        <ele>446.67</ele>
        <time>2017-05-13T11:01:04Z</time>
      </trkpt>
      <trkpt lat="44.15033" lon="5.02796">
        <ele>446.19</ele>
        <time>2017-05-13T11:01:15Z</time>
      </trkpt>
      <trkpt lat="44.1503" lon="5.0281">
        <ele>445.23</ele>
        <time>2017-05-13T11:01:31Z</time>
      </trkpt>
      <trkpt lat="44.15028" lon="5.02824">
        <ele>444.27</ele>
        <time>2017-05-13T11:01:42Z</time>
      </trkpt>
      <trkpt lat="44.15025" lon="5.02837">
        <ele>443.79</ele>
        <time>2017-05-13T11:01:52Z</time>
      </trkpt>
      <trkpt lat="44.15024" lon="5.02851">
        <ele>441.38</ele>
        <time>2017-05-13T11:02:02Z</time>
      </trkpt>
      <trkpt lat="44.15024" lon="5.02865">
        <ele>439.94</ele>
        <time>2017-05-13T11:02:10Z</time>
      </trkpt>
      <trkpt lat="44.15021" lon="5.02877">
        <ele>438.98</ele>
        <time>2017-05-13T11:02:18Z</time>
      </trkpt>
      <trkpt lat="44.15018" lon="5.0289">
        <ele>437.54</ele>
        <time>2017-05-13T11:02:27Z</time>
      </trkpt>
      <trkpt lat="44.15016" lon="5.02903">
        <ele>437.54</ele>
        <time>2017-05-13T11:02:36Z</time>
      </trkpt>
      <trkpt lat="44.15017" lon="5.02917">
        <ele>436.58</ele>
        <time>2017-05-13T11:02:45Z</time>
      </trkpt>
      <trkpt lat="44.15016" lon="5.02931">
        <ele>435.13</ele>
        <time>2017-05-13T11:02:55Z</time>
      </trkpt>
      <trkpt lat="44.15013" lon="5.02945">
        <ele>434.17</ele>
        <time>2017-05-13T11:03:05Z</time>
      </trkpt>
      <trkpt lat="44.15016" lon="5.02958">
        <ele>431.77</ele>
        <time>2017-05-13T11:03:19Z</time>
      </trkpt>
      <trkpt lat="44.15018" lon="5.02971">
        <ele>429.85</ele>
        <time>2017-05-13T11:03:31Z</time>
      </trkpt>
      <trkpt lat="44.15014" lon="5.02985">
        <ele>426.96</ele>
        <time>2017-05-13T11:04:01Z</time>
      </trkpt>
      <trkpt lat="44.15022" lon="5.02995">
        <ele>425.04</ele>
        <time>2017-05-13T11:04:45Z</time>
      </trkpt>
      <trkpt lat="44.15024" lon="5.03009">
        <ele>424.56</ele>
        <time>2017-05-13T11:04:55Z</time>
      </trkpt>
      <trkpt lat="44.1503" lon="5.03021">
        <ele>426.96</ele>
        <time>2017-05-13T11:05:07Z</time>
      </trkpt>
      <trkpt lat="44.15035" lon="5.03034">
        <ele>429.37</ele>
        <time>2017-05-13T11:05:23Z</time>
      </trkpt>
      <trkpt lat="44.15038" lon="5.03044">
        <ele>432.25</ele>
        <time>2017-05-13T11:06:25Z</time>
      </trkpt>
      <trkpt lat="44.15045" lon="5.03046">
        <ele>434.17</ele>
        <time>2017-05-13T11:07:12Z</time>
      </trkpt>
      <trkpt lat="44.15056" lon="5.03049">
        <ele>432.73</ele>
        <time>2017-05-13T11:07:28Z</time>
      </trkpt>
      <trkpt lat="44.15063" lon="5.03055">
        <ele>429.37</ele>
        <time>2017-05-13T11:07:52Z</time>
      </trkpt>
      <trkpt lat="44.1507" lon="5.03063">
        <ele>428.4</ele>
        <time>2017-05-13T11:08:36Z</time>
      </trkpt>
      <trkpt lat="44.15079" lon="5.03064">
        <ele>431.29</ele>
        <time>2017-05-13T11:09:40Z</time>
      </trkpt>
      <trkpt lat="44.15084" lon="5.03069">
        <ele>428.4</ele>
        <time>2017-05-13T11:10:16Z</time>
      </trkpt>
      <trkpt lat="44.15091" lon="5.03071">
        <ele>425.52</ele>
        <time>2017-05-13T11:10:34Z</time>
      </trkpt>
      <trkpt lat="44.15091" lon="5.03087">
        <ele>423.12</ele>
        <time>2017-05-13T11:11:02Z</time>
      </trkpt>
      <trkpt lat="44.15092" lon="5.03095">
        <ele>421.19</ele>
        <time>2017-05-13T11:11:45Z</time>
      </trkpt>
      <trkpt lat="44.1509" lon="5.03107">
        <ele>420.23</ele>
        <time>2017-05-13T11:12:26Z</time>
      </trkpt>
      <trkpt lat="44.1509" lon="5.03118">
        <ele>418.79</ele>
        <time>2017-05-13T11:13:07Z</time>
      </trkpt>
      <trkpt lat="44.15093" lon="5.0313">
        <ele>415.43</ele>
        <time>2017-05-13T11:13:28Z</time>
      </trkpt>
      <trkpt lat="44.15098" lon="5.03141">
        <ele>412.54</ele>
        <time>2017-05-13T11:13:49Z</time>
      </trkpt>
      <trkpt lat="44.15101" lon="5.03153">
        <ele>409.66</ele>
        <time>2017-05-13T11:14:04Z</time>
      </trkpt>
      <trkpt lat="44.15105" lon="5.03166">
        <ele>407.26</ele>
        <time>2017-05-13T11:14:16Z</time>
      </trkpt>
      <trkpt lat="44.15109" lon="5.03179">
        <ele>405.33</ele>
        <time>2017-05-13T11:14:27Z</time>
      </trkpt>
      <trkpt lat="44.15111" lon="5.03193">
        <ele>403.41</ele>
        <time>2017-05-13T11:14:40Z</time>
      </trkpt>
      <trkpt lat="44.15115" lon="5.03204">
        <ele>401.49</ele>
        <time>2017-05-13T11:14:53Z</time>
      </trkpt>
      <trkpt lat="44.15114" lon="5.03217">
        <ele>401.01</ele>
        <time>2017-05-13T11:15:05Z</time>
      </trkpt>
      <trkpt lat="44.15118" lon="5.03231">
        <ele>401.01</ele>
        <time>2017-05-13T11:15:16Z</time>
      </trkpt>
      <trkpt lat="44.15121" lon="5.03244">
        <ele>400.53</ele>
        <time>2017-05-13T11:15:24Z</time>
      </trkpt>
      <trkpt lat="44.15123" lon="5.03257">
        <ele>400.05</ele>
        <time>2017-05-13T11:15:34Z</time>
      </trkpt>
      <trkpt lat="44.15127" lon="5.03268">
        <ele>397.64</ele>
        <time>2017-05-13T11:16:27Z</time>
      </trkpt>
      <trkpt lat="44.15135" lon="5.03279">
        <ele>395.72</ele>
        <time>2017-05-13T11:17:08Z</time>
      </trkpt>
      <trkpt lat="44.15137" lon="5.03291">
        <ele>394.28</ele>
        <time>2017-05-13T11:17:20Z</time>
      </trkpt>
      <trkpt lat="44.1514" lon="5.03302">
        <ele>392.36</ele>
        <time>2017-05-13T11:17:43Z</time>
      </trkpt>
      <trkpt lat="44.15141" lon="5.03316">
        <ele>389.95</ele>
        <time>2017-05-13T11:17:56Z</time>
      </trkpt>
      <trkpt lat="44.15147" lon="5.03327">
        <ele>388.03</ele>
        <time>2017-05-13T11:18:08Z</time>
      </trkpt>
      <trkpt lat="44.1515" lon="5.0334">
        <ele>385.63</ele>
        <time>2017-05-13T11:18:23Z</time>
      </trkpt>
      <trkpt lat="44.15154" lon="5.03352">
        <ele>384.18</ele>
        <time>2017-05-13T11:18:37Z</time>
      </trkpt>
      <trkpt lat="44.15156" lon="5.03366">
        <ele>382.26</ele>
        <time>2017-05-13T11:18:50Z</time>
      </trkpt>
      <trkpt lat="44.15159" lon="5.0338">
        <ele>381.78</ele>
        <time>2017-05-13T11:19:02Z</time>
      </trkpt>
      <trkpt lat="44.1516" lon="5.03394">
        <ele>381.3</ele>
        <time>2017-05-13T11:19:12Z</time>
      </trkpt>
      <trkpt lat="44.15163" lon="5.03406">
        <ele>380.34</ele>
        <time>2017-05-13T11:19:29Z</time>
      </trkpt>
      <trkpt lat="44.15166" lon="5.03419">
        <ele>378.9</ele>
        <time>2017-05-13T11:19:37Z</time>
      </trkpt>
      <trkpt lat="44.15166" lon="5.03433">
        <ele>378.42</ele>
        <time>2017-05-13T11:19:44Z</time>
      </trkpt>
      <trkpt lat="44.15167" lon="5.03447">
        <ele>378.42</ele>
        <time>2017-05-13T11:19:52Z</time>
      </trkpt>
      <trkpt lat="44.15171" lon="5.03459">
        <ele>376.49</ele>
        <time>2017-05-13T11:20:01Z</time>
      </trkpt>
      <trkpt lat="44.15179" lon="5.03467">
        <ele>373.13</ele>
        <time>2017-05-13T11:20:28Z</time>
      </trkpt>
      <trkpt lat="44.15187" lon="5.03475">
        <ele>369.76</ele>
        <time>2017-05-13T11:20:50Z</time>
      </trkpt>
      <trkpt lat="44.15192" lon="5.03486">
        <ele>367.36</ele>
        <time>2017-05-13T11:21:06Z</time>
      </trkpt>
      <trkpt lat="44.15198" lon="5.03498">
        <ele>365.44</ele>
        <time>2017-05-13T11:21:18Z</time>
      </trkpt>
      <trkpt lat="44.15203" lon="5.03509">
        <ele>364.48</ele>
        <time>2017-05-13T11:21:28Z</time>
      </trkpt>
      <trkpt lat="44.15208" lon="5.03522">
        <ele>364</ele>
        <time>2017-05-13T11:21:37Z</time>
      </trkpt>
      <trkpt lat="44.15212" lon="5.03534">
        <ele>363.04</ele>
        <time>2017-05-13T11:21:46Z</time>
      </trkpt>
      <trkpt lat="44.15217" lon="5.03545">
        <ele>361.59</ele>
        <time>2017-05-13T11:21:55Z</time>
      </trkpt>
      <trkpt lat="44.15222" lon="5.03556">
        <ele>360.63</ele>
        <time>2017-05-13T11:22:04Z</time>
      </trkpt>
      <trkpt lat="44.15228" lon="5.03568">
        <ele>359.67</ele>
        <time>2017-05-13T11:22:13Z</time>
      </trkpt>
      <trkpt lat="44.15235" lon="5.03579">
        <ele>358.23</ele>
        <time>2017-05-13T11:22:23Z</time>
      </trkpt>
      <trkpt lat="44.1524" lon="5.03592">
        <ele>356.79</ele>
        <time>2017-05-13T11:22:32Z</time>
      </trkpt>
      <trkpt lat="44.15245" lon="5.03605">
        <ele>355.83</ele>
        <time>2017-05-13T11:22:42Z</time>
      </trkpt>
      <trkpt lat="44.15251" lon="5.03615">
        <ele>354.38</ele>
        <time>2017-05-13T11:22:51Z</time>
      </trkpt>
      <trkpt lat="44.15255" lon="5.03628">
        <ele>354.38</ele>
        <time>2017-05-13T11:23:00Z</time>
      </trkpt>
      <trkpt lat="44.15258" lon="5.03642">
        <ele>354.38</ele>
        <time>2017-05-13T11:23:10Z</time>
      </trkpt>
      <trkpt lat="44.15265" lon="5.03653">
        <ele>352.46</ele>
        <time>2017-05-13T11:23:29Z</time>
      </trkpt>
      <trkpt lat="44.15276" lon="5.0366">
        <ele>349.1</ele>
        <time>2017-05-13T11:24:04Z</time>
      </trkpt>
      <trkpt lat="44.15279" lon="5.03674">
        <ele>348.62</ele>
        <time>2017-05-13T11:24:22Z</time>
      </trkpt>
      <trkpt lat="44.15281" lon="5.03685">
        <ele>348.62</ele>
        <time>2017-05-13T11:24:40Z</time>
      </trkpt>
      <trkpt lat="44.15282" lon="5.03684">
        <ele>346.69</ele>
        <time>2017-05-13T11:26:15Z</time>
      </trkpt>
      <trkpt lat="44.15286" lon="5.03677">
        <ele>343.81</ele>
        <time>2017-05-13T11:26:28Z</time>
      </trkpt>
      <trkpt lat="44.15294" lon="5.03667">
        <ele>339.96</ele>
        <time>2017-05-13T11:26:46Z</time>
      </trkpt>
      <trkpt lat="44.153" lon="5.03659">
        <ele>335.16</ele>
        <time>2017-05-13T11:27:10Z</time>
      </trkpt>
      <trkpt lat="44.15309" lon="5.0365">
        <ele>330.35</ele>
        <time>2017-05-13T11:27:46Z</time>
      </trkpt>
      <trkpt lat="44.15315" lon="5.03657">
        <ele>328.91</ele>
        <time>2017-05-13T11:32:39Z</time>
      </trkpt>
      <trkpt lat="44.15323" lon="5.03665">
        <ele>331.79</ele>
        <time>2017-05-13T11:32:50Z</time>
      </trkpt>
      <trkpt lat="44.1533" lon="5.03668">
        <ele>333.23</ele>
        <time>2017-05-13T11:33:01Z</time>
      </trkpt>
      <trkpt lat="44.15339" lon="5.03657">
        <ele>334.68</ele>
        <time>2017-05-13T11:33:12Z</time>
      </trkpt>
      <trkpt lat="44.15348" lon="5.03651">
        <ele>332.75</ele>
        <time>2017-05-13T11:33:25Z</time>
      </trkpt>
      <trkpt lat="44.15357" lon="5.03641">
        <ele>331.79</ele>
        <time>2017-05-13T11:33:37Z</time>
      </trkpt>
      <trkpt lat="44.15365" lon="5.03645">
        <ele>331.79</ele>
        <time>2017-05-13T11:33:47Z</time>
      </trkpt>
      <trkpt lat="44.15371" lon="5.03659">
        <ele>331.79</ele>
        <time>2017-05-13T11:33:57Z</time>
      </trkpt>
      <trkpt lat="44.15376" lon="5.03671">
        <ele>331.79</ele>
        <time>2017-05-13T11:34:07Z</time>
      </trkpt>
      <trkpt lat="44.15384" lon="5.03682">
        <ele>329.39</ele>
        <time>2017-05-13T11:34:19Z</time>
      </trkpt>
      <trkpt lat="44.15393" lon="5.03688">
        <ele>327.95</ele>
        <time>2017-05-13T11:34:34Z</time>
      </trkpt>
      <trkpt lat="44.15404" lon="5.0369">
        <ele>326.99</ele>
        <time>2017-05-13T11:34:42Z</time>
      </trkpt>
      <trkpt lat="44.15414" lon="5.03696">
        <ele>326.02</ele>
        <time>2017-05-13T11:34:53Z</time>
      </trkpt>
      <trkpt lat="44.15424" lon="5.03703">
        <ele>324.1</ele>
        <time>2017-05-13T11:35:04Z</time>
      </trkpt>
      <trkpt lat="44.15433" lon="5.03713">
        <ele>322.66</ele>
        <time>2017-05-13T11:35:15Z</time>
      </trkpt>
      <trkpt lat="44.15444" lon="5.0372">
        <ele>321.22</ele>
        <time>2017-05-13T11:35:26Z</time>
      </trkpt>
      <trkpt lat="44.15454" lon="5.03726">
        <ele>319.78</ele>
        <time>2017-05-13T11:35:36Z</time>
      </trkpt>
      <trkpt lat="44.15464" lon="5.03733">
        <ele>318.33</ele>
        <time>2017-05-13T11:35:48Z</time>
      </trkpt>
      <trkpt lat="44.1547" lon="5.03744">
        <ele>317.85</ele>
        <time>2017-05-13T11:35:57Z</time>
      </trkpt>
      <trkpt lat="44.15471" lon="5.03759">
        <ele>316.89</ele>
        <time>2017-05-13T11:36:08Z</time>
      </trkpt>
      <trkpt lat="44.15476" lon="5.03772">
        <ele>314.97</ele>
        <time>2017-05-13T11:36:21Z</time>
      </trkpt>
      <trkpt lat="44.15485" lon="5.03782">
        <ele>313.53</ele>
        <time>2017-05-13T11:36:32Z</time>
      </trkpt>
      <trkpt lat="44.15494" lon="5.03791">
        <ele>311.6</ele>
        <time>2017-05-13T11:36:44Z</time>
      </trkpt>
      <trkpt lat="44.15502" lon="5.03802">
        <ele>311.12</ele>
        <time>2017-05-13T11:36:55Z</time>
      </trkpt>
      <trkpt lat="44.15507" lon="5.03814">
        <ele>310.64</ele>
        <time>2017-05-13T11:37:05Z</time>
      </trkpt>
      <trkpt lat="44.15513" lon="5.03826">
        <ele>309.68</ele>
        <time>2017-05-13T11:37:17Z</time>
      </trkpt>
      <trkpt lat="44.1552" lon="5.03839">
        <ele>307.28</ele>
        <time>2017-05-13T11:37:31Z</time>
      </trkpt>
      <trkpt lat="44.15527" lon="5.03851">
        <ele>305.36</ele>
        <time>2017-05-13T11:37:49Z</time>
      </trkpt>
      <trkpt lat="44.15531" lon="5.03863">
        <ele>303.91</ele>
        <time>2017-05-13T11:38:00Z</time>
      </trkpt>
      <trkpt lat="44.15532" lon="5.0388">
        <ele>302.47</ele>
        <time>2017-05-13T11:38:17Z</time>
      </trkpt>
      <trkpt lat="44.15536" lon="5.03902">
        <ele>300.55</ele>
        <time>2017-05-13T11:38:38Z</time>
      </trkpt>
      <trkpt lat="44.15545" lon="5.0392">
        <ele>297.67</ele>
        <time>2017-05-13T11:38:57Z</time>
      </trkpt>
      <trkpt lat="44.15547" lon="5.03941">
        <ele>295.26</ele>
        <time>2017-05-13T11:39:20Z</time>
      </trkpt>
      <trkpt lat="44.15546" lon="5.03963">
        <ele>295.26</ele>
        <time>2017-05-13T11:39:31Z</time>
      </trkpt>
      <trkpt lat="44.15549" lon="5.03977">
        <ele>294.3</ele>
        <time>2017-05-13T11:39:43Z</time>
      </trkpt>
      <trkpt lat="44.15555" lon="5.03992">
        <ele>292.38</ele>
        <time>2017-05-13T11:39:57Z</time>
      </trkpt>
      <trkpt lat="44.15561" lon="5.04005">
        <ele>290.46</ele>
        <time>2017-05-13T11:40:08Z</time>
      </trkpt>
      <trkpt lat="44.15566" lon="5.0402">
        <ele>288.53</ele>
        <time>2017-05-13T11:40:20Z</time>
      </trkpt>
      <trkpt lat="44.15572" lon="5.04033">
        <ele>287.57</ele>
        <time>2017-05-13T11:40:31Z</time>
      </trkpt>
      <trkpt lat="44.15577" lon="5.04049">
        <ele>285.17</ele>
        <time>2017-05-13T11:40:45Z</time>
      </trkpt>
      <trkpt lat="44.15583" lon="5.04064">
        <ele>283.73</ele>
        <time>2017-05-13T11:41:01Z</time>
      </trkpt>
      <trkpt lat="44.1559" lon="5.04079">
        <ele>282.77</ele>
        <time>2017-05-13T11:41:13Z</time>
      </trkpt>
      <trkpt lat="44.15596" lon="5.04095">
        <ele>281.32</ele>
        <time>2017-05-13T11:41:24Z</time>
      </trkpt>
      <trkpt lat="44.15601" lon="5.04109">
        <ele>280.36</ele>
        <time>2017-05-13T11:41:34Z</time>
      </trkpt>
      <trkpt lat="44.15607" lon="5.04123">
        <ele>279.88</ele>
        <time>2017-05-13T11:41:45Z</time>
      </trkpt>
      <trkpt lat="44.15612" lon="5.04138">
        <ele>278.92</ele>
        <time>2017-05-13T11:41:59Z</time>
      </trkpt>
      <trkpt lat="44.15617" lon="5.04154">
        <ele>277</ele>
        <time>2017-05-13T11:42:10Z</time>
      </trkpt>
      <trkpt lat="44.15623" lon="5.04169">
        <ele>276.04</ele>
        <time>2017-05-13T11:42:22Z</time>
      </trkpt>
      <trkpt lat="44.15626" lon="5.04186">
        <ele>274.59</ele>
        <time>2017-05-13T11:42:35Z</time>
      </trkpt>
      <trkpt lat="44.15627" lon="5.04203">
        <ele>273.63</ele>
        <time>2017-05-13T11:42:45Z</time>
      </trkpt>
      <trkpt lat="44.15629" lon="5.04219">
        <ele>272.67</ele>
        <time>2017-05-13T11:43:01Z</time>
      </trkpt>
      <trkpt lat="44.15633" lon="5.0425">
        <ele>271.71</ele>
        <time>2017-05-13T11:43:24Z</time>
      </trkpt>
      <trkpt lat="44.15628" lon="5.04264">
        <ele>270.27</ele>
        <time>2017-05-13T11:43:38Z</time>
      </trkpt>
      <trkpt lat="44.15626" lon="5.04282">
        <ele>268.83</ele>
        <time>2017-05-13T11:43:54Z</time>
      </trkpt>
      <trkpt lat="44.15632" lon="5.04299">
        <ele>266.42</ele>
        <time>2017-05-13T11:44:19Z</time>
      </trkpt>
      <trkpt lat="44.15637" lon="5.04314">
        <ele>263.06</ele>
        <time>2017-05-13T11:44:43Z</time>
      </trkpt>
      <trkpt lat="44.15638" lon="5.0433">
        <ele>264.5</ele>
        <time>2017-05-13T11:44:58Z</time>
      </trkpt>
      <trkpt lat="44.15641" lon="5.04346">
        <ele>264.98</ele>
        <time>2017-05-13T11:45:11Z</time>
      </trkpt>
      <trkpt lat="44.15645" lon="5.0436">
        <ele>264.98</ele>
        <time>2017-05-13T11:45:22Z</time>
      </trkpt>
      <trkpt lat="44.15649" lon="5.04373">
        <ele>264.02</ele>
        <time>2017-05-13T11:45:32Z</time>
      </trkpt>
      <trkpt lat="44.15654" lon="5.04386">
        <ele>263.06</ele>
        <time>2017-05-13T11:45:43Z</time>
      </trkpt>
      <trkpt lat="44.15656" lon="5.04403">
        <ele>262.1</ele>
        <time>2017-05-13T11:45:55Z</time>
      </trkpt>
      <trkpt lat="44.15657" lon="5.0442">
        <ele>261.14</ele>
        <time>2017-05-13T11:46:07Z</time>
      </trkpt>
      <trkpt lat="44.15658" lon="5.04439">
        <ele>260.17</ele>
        <time>2017-05-13T11:46:21Z</time>
      </trkpt>
      <trkpt lat="44.15661" lon="5.04456">
        <ele>259.69</ele>
        <time>2017-05-13T11:46:33Z</time>
      </trkpt>
      <trkpt lat="44.15665" lon="5.04471">
        <ele>258.73</ele>
        <time>2017-05-13T11:46:45Z</time>
      </trkpt>
      <trkpt lat="44.15666" lon="5.04488">
        <ele>258.25</ele>
        <time>2017-05-13T11:46:59Z</time>
      </trkpt>
      <trkpt lat="44.1567" lon="5.04503">
        <ele>257.29</ele>
        <time>2017-05-13T11:47:13Z</time>
      </trkpt>
      <trkpt lat="44.15682" lon="5.04522">
        <ele>256.33</ele>
        <time>2017-05-13T11:50:25Z</time>
      </trkpt>
      <trkpt lat="44.15693" lon="5.04513">
        <ele>255.37</ele>
        <time>2017-05-13T11:51:13Z</time>
      </trkpt>
      <trkpt lat="44.15702" lon="5.0452">
        <ele>254.41</ele>
        <time>2017-05-13T11:51:41Z</time>
      </trkpt>
      <trkpt lat="44.15711" lon="5.0451">
        <ele>255.85</ele>
        <time>2017-05-13T11:51:55Z</time>
      </trkpt>
      <trkpt lat="44.15721" lon="5.045">
        <ele>256.33</ele>
        <time>2017-05-13T11:52:09Z</time>
      </trkpt>
      <trkpt lat="44.15731" lon="5.04494">
        <ele>256.81</ele>
        <time>2017-05-13T11:52:26Z</time>
      </trkpt>
      <trkpt lat="44.15742" lon="5.04485">
        <ele>256.81</ele>
        <time>2017-05-13T11:52:40Z</time>
      </trkpt>
      <trkpt lat="44.15754" lon="5.04477">
        <ele>257.77</ele>
        <time>2017-05-13T11:52:53Z</time>
      </trkpt>
      <trkpt lat="44.15766" lon="5.04469">
        <ele>257.29</ele>
        <time>2017-05-13T11:53:08Z</time>
      </trkpt>
      <trkpt lat="44.15778" lon="5.04463">
        <ele>257.77</ele>
        <time>2017-05-13T11:53:24Z</time>
      </trkpt>
      <trkpt lat="44.1579" lon="5.04458">
        <ele>258.25</ele>
        <time>2017-05-13T11:53:41Z</time>
      </trkpt>
      <trkpt lat="44.15803" lon="5.04451">
        <ele>258.25</ele>
        <time>2017-05-13T11:53:52Z</time>
      </trkpt>
      <trkpt lat="44.15811" lon="5.0444">
        <ele>258.73</ele>
        <time>2017-05-13T11:54:05Z</time>
      </trkpt>
      <trkpt lat="44.15818" lon="5.04429">
        <ele>258.73</ele>
        <time>2017-05-13T11:54:17Z</time>
      </trkpt>
      <trkpt lat="44.15825" lon="5.04418">
        <ele>258.73</ele>
        <time>2017-05-13T11:54:27Z</time>
      </trkpt>
      <trkpt lat="44.15833" lon="5.04411">
        <ele>258.73</ele>
        <time>2017-05-13T11:54:38Z</time>
      </trkpt>
      <trkpt lat="44.15841" lon="5.04401">
        <ele>259.21</ele>
        <time>2017-05-13T11:54:49Z</time>
      </trkpt>
      <trkpt lat="44.15851" lon="5.04392">
        <ele>259.69</ele>
        <time>2017-05-13T11:55:02Z</time>
      </trkpt>
      <trkpt lat="44.15866" lon="5.04378">
        <ele>260.17</ele>
        <time>2017-05-13T11:55:16Z</time>
      </trkpt>
      <trkpt lat="44.15877" lon="5.04374">
        <ele>260.17</ele>
        <time>2017-05-13T11:55:27Z</time>
      </trkpt>
      <trkpt lat="44.15887" lon="5.04378">
        <ele>261.14</ele>
        <time>2017-05-13T11:55:36Z</time>
      </trkpt>
      <trkpt lat="44.15896" lon="5.04386">
        <ele>261.14</ele>
        <time>2017-05-13T11:55:45Z</time>
      </trkpt>
      <trkpt lat="44.15903" lon="5.04397">
        <ele>261.62</ele>
        <time>2017-05-13T11:55:54Z</time>
      </trkpt>
      <trkpt lat="44.15908" lon="5.04408">
        <ele>262.58</ele>
        <time>2017-05-13T11:56:03Z</time>
      </trkpt>
      <trkpt lat="44.15916" lon="5.04418">
        <ele>262.58</ele>
        <time>2017-05-13T11:56:12Z</time>
      </trkpt>
      <trkpt lat="44.15924" lon="5.04426">
        <ele>262.58</ele>
        <time>2017-05-13T11:56:22Z</time>
      </trkpt>
      <trkpt lat="44.1593" lon="5.04437">
        <ele>263.54</ele>
        <time>2017-05-13T11:56:32Z</time>
      </trkpt>
      <trkpt lat="44.15935" lon="5.0445">
        <ele>264.5</ele>
        <time>2017-05-13T11:56:42Z</time>
      </trkpt>
      <trkpt lat="44.1594" lon="5.04463">
        <ele>265.94</ele>
        <time>2017-05-13T11:56:56Z</time>
      </trkpt>
      <trkpt lat="44.15946" lon="5.04457">
        <ele>265.94</ele>
        <time>2017-05-13T12:00:19Z</time>
      </trkpt>
      <trkpt lat="44.15955" lon="5.04452">
        <ele>265.94</ele>
        <time>2017-05-13T12:00:31Z</time>
      </trkpt>
      <trkpt lat="44.15964" lon="5.04446">
        <ele>265.94</ele>
        <time>2017-05-13T12:00:43Z</time>
      </trkpt>
      <trkpt lat="44.15972" lon="5.04437">
        <ele>265.94</ele>
        <time>2017-05-13T12:00:54Z</time>
      </trkpt>
      <trkpt lat="44.15978" lon="5.04428">
        <ele>265.94</ele>
        <time>2017-05-13T12:01:05Z</time>
      </trkpt>
      <trkpt lat="44.15984" lon="5.0442">
        <ele>265.94</ele>
        <time>2017-05-13T12:01:18Z</time>
      </trkpt>
      <trkpt lat="44.15989" lon="5.04408">
        <ele>265.94</ele>
        <time>2017-05-13T12:01:28Z</time>
      </trkpt>
      <trkpt lat="44.15992" lon="5.04395">
        <ele>266.42</ele>
        <time>2017-05-13T12:01:39Z</time>
      </trkpt>
      <trkpt lat="44.15997" lon="5.04383">
        <ele>266.9</ele>
        <time>2017-05-13T12:01:51Z</time>
      </trkpt>
      <trkpt lat="44.16004" lon="5.0437">
        <ele>267.38</ele>
        <time>2017-05-13T12:02:03Z</time>
      </trkpt>
      <trkpt lat="44.16012" lon="5.04358">
        <ele>268.35</ele>
        <time>2017-05-13T12:02:14Z</time>
      </trkpt>
      <trkpt lat="44.16021" lon="5.04348">
        <ele>268.83</ele>
        <time>2017-05-13T12:02:25Z</time>
      </trkpt>
      <trkpt lat="44.16031" lon="5.04338">
        <ele>268.83</ele>
        <time>2017-05-13T12:02:36Z</time>
      </trkpt>
      <trkpt lat="44.16039" lon="5.04329">
        <ele>269.31</ele>
        <time>2017-05-13T12:02:47Z</time>
      </trkpt>
      <trkpt lat="44.16048" lon="5.04319">
        <ele>269.79</ele>
        <time>2017-05-13T12:02:57Z</time>
      </trkpt>
      <trkpt lat="44.16056" lon="5.04308">
        <ele>270.27</ele>
        <time>2017-05-13T12:03:06Z</time>
      </trkpt>
      <trkpt lat="44.16064" lon="5.043">
        <ele>270.75</ele>
        <time>2017-05-13T12:03:15Z</time>
      </trkpt>
      <trkpt lat="44.16072" lon="5.04291">
        <ele>270.75</ele>
        <time>2017-05-13T12:03:25Z</time>
      </trkpt>
      <trkpt lat="44.16081" lon="5.04282">
        <ele>271.23</ele>
        <time>2017-05-13T12:03:35Z</time>
      </trkpt>
      <trkpt lat="44.1609" lon="5.04275">
        <ele>271.23</ele>
        <time>2017-05-13T12:03:46Z</time>
      </trkpt>
      <trkpt lat="44.16097" lon="5.04264">
        <ele>271.71</ele>
        <time>2017-05-13T12:03:55Z</time>
      </trkpt>
      <trkpt lat="44.16103" lon="5.04253">
        <ele>271.71</ele>
        <time>2017-05-13T12:04:04Z</time>
      </trkpt>
      <trkpt lat="44.16108" lon="5.04243">
        <ele>273.15</ele>
        <time>2017-05-13T12:04:13Z</time>
      </trkpt>
      <trkpt lat="44.16114" lon="5.04231">
        <ele>273.63</ele>
        <time>2017-05-13T12:04:24Z</time>
      </trkpt>
      <trkpt lat="44.16118" lon="5.04218">
        <ele>274.59</ele>
        <time>2017-05-13T12:04:36Z</time>
      </trkpt>
      <trkpt lat="44.1612" lon="5.04204">
        <ele>275.07</ele>
        <time>2017-05-13T12:04:46Z</time>
      </trkpt>
      <trkpt lat="44.16121" lon="5.0419">
        <ele>276.04</ele>
        <time>2017-05-13T12:04:57Z</time>
      </trkpt>
      <trkpt lat="44.16124" lon="5.04175">
        <ele>276.52</ele>
        <time>2017-05-13T12:05:08Z</time>
      </trkpt>
      <trkpt lat="44.16128" lon="5.0416">
        <ele>276.52</ele>
        <time>2017-05-13T12:05:18Z</time>
      </trkpt>
      <trkpt lat="44.16131" lon="5.04145">
        <ele>276.52</ele>
        <time>2017-05-13T12:05:29Z</time>
      </trkpt>
      <trkpt lat="44.16136" lon="5.0413">
        <ele>276.04</ele>
        <time>2017-05-13T12:05:38Z</time>
      </trkpt>
      <trkpt lat="44.16142" lon="5.04117">
        <ele>276.04</ele>
        <time>2017-05-13T12:05:47Z</time>
      </trkpt>
      <trkpt lat="44.16149" lon="5.04106">
        <ele>276.04</ele>
        <time>2017-05-13T12:05:56Z</time>
      </trkpt>
      <trkpt lat="44.16157" lon="5.04096">
        <ele>276.04</ele>
        <time>2017-05-13T12:06:09Z</time>
      </trkpt>
      <trkpt lat="44.16169" lon="5.04091">
        <ele>276.04</ele>
        <time>2017-05-13T12:06:19Z</time>
      </trkpt>
      <trkpt lat="44.16182" lon="5.04083">
        <ele>275.56</ele>
        <time>2017-05-13T12:06:49Z</time>
      </trkpt>
      <trkpt lat="44.16189" lon="5.04071">
        <ele>274.59</ele>
        <time>2017-05-13T12:07:02Z</time>
      </trkpt>
      <trkpt lat="44.16192" lon="5.04056">
        <ele>274.59</ele>
        <time>2017-05-13T12:07:16Z</time>
      </trkpt>
      <trkpt lat="44.16193" lon="5.04041">
        <ele>274.11</ele>
        <time>2017-05-13T12:07:31Z</time>
      </trkpt>
      <trkpt lat="44.16194" lon="5.04027">
        <ele>276.04</ele>
        <time>2017-05-13T12:07:44Z</time>
      </trkpt>
      <trkpt lat="44.16195" lon="5.04013">
        <ele>277</ele>
        <time>2017-05-13T12:07:55Z</time>
      </trkpt>
      <trkpt lat="44.16196" lon="5.04">
        <ele>277.96</ele>
        <time>2017-05-13T12:08:04Z</time>
      </trkpt>
      <trkpt lat="44.16198" lon="5.03985">
        <ele>279.4</ele>
        <time>2017-05-13T12:08:14Z</time>
      </trkpt>
      <trkpt lat="44.16197" lon="5.03971">
        <ele>280.36</ele>
        <time>2017-05-13T12:08:26Z</time>
      </trkpt>
      <trkpt lat="44.16196" lon="5.03955">
        <ele>281.8</ele>
        <time>2017-05-13T12:08:38Z</time>
      </trkpt>
      <trkpt lat="44.16196" lon="5.03938">
        <ele>283.25</ele>
        <time>2017-05-13T12:08:53Z</time>
      </trkpt>
      <trkpt lat="44.16196" lon="5.03922">
        <ele>284.69</ele>
        <time>2017-05-13T12:09:08Z</time>
      </trkpt>
      <trkpt lat="44.16194" lon="5.03906">
        <ele>286.13</ele>
        <time>2017-05-13T12:09:22Z</time>
      </trkpt>
      <trkpt lat="44.16196" lon="5.0389">
        <ele>287.09</ele>
        <time>2017-05-13T12:09:38Z</time>
      </trkpt>
      <trkpt lat="44.16197" lon="5.03875">
        <ele>287.57</ele>
        <time>2017-05-13T12:09:49Z</time>
      </trkpt>
      <trkpt lat="44.16199" lon="5.03862">
        <ele>288.53</ele>
        <time>2017-05-13T12:10:01Z</time>
      </trkpt>
      <trkpt lat="44.16197" lon="5.03846">
        <ele>289.97</ele>
        <time>2017-05-13T12:10:15Z</time>
      </trkpt>
      <trkpt lat="44.16197" lon="5.03833">
        <ele>289.97</ele>
        <time>2017-05-13T12:10:35Z</time>
      </trkpt>
      <trkpt lat="44.16198" lon="5.03818">
        <ele>289.97</ele>
        <time>2017-05-13T12:10:46Z</time>
      </trkpt>
      <trkpt lat="44.162" lon="5.03805">
        <ele>290.46</ele>
        <time>2017-05-13T12:10:57Z</time>
      </trkpt>
      <trkpt lat="44.16203" lon="5.03791">
        <ele>290.94</ele>
        <time>2017-05-13T12:11:08Z</time>
      </trkpt>
      <trkpt lat="44.16208" lon="5.03779">
        <ele>291.9</ele>
        <time>2017-05-13T12:11:19Z</time>
      </trkpt>
      <trkpt lat="44.16211" lon="5.03766">
        <ele>291.9</ele>
        <time>2017-05-13T12:11:30Z</time>
      </trkpt>
      <trkpt lat="44.16214" lon="5.03753">
        <ele>292.86</ele>
        <time>2017-05-13T12:11:40Z</time>
      </trkpt>
      <trkpt lat="44.16215" lon="5.03739">
        <ele>292.86</ele>
        <time>2017-05-13T12:11:51Z</time>
      </trkpt>
      <trkpt lat="44.16217" lon="5.03726">
        <ele>293.34</ele>
        <time>2017-05-13T12:12:01Z</time>
      </trkpt>
      <trkpt lat="44.16218" lon="5.03712">
        <ele>293.82</ele>
        <time>2017-05-13T12:12:11Z</time>
      </trkpt>
      <trkpt lat="44.16216" lon="5.03698">
        <ele>294.78</ele>
        <time>2017-05-13T12:12:21Z</time>
      </trkpt>
      <trkpt lat="44.16214" lon="5.03685">
        <ele>295.26</ele>
        <time>2017-05-13T12:12:31Z</time>
      </trkpt>
      <trkpt lat="44.16211" lon="5.03672">
        <ele>295.74</ele>
        <time>2017-05-13T12:12:42Z</time>
      </trkpt>
      <trkpt lat="44.16209" lon="5.03661">
        <ele>296.7</ele>
        <time>2017-05-13T12:13:09Z</time>
      </trkpt>
      <trkpt lat="44.16207" lon="5.03647">
        <ele>296.7</ele>
        <time>2017-05-13T12:13:19Z</time>
      </trkpt>
      <trkpt lat="44.16205" lon="5.03632">
        <ele>296.7</ele>
        <time>2017-05-13T12:13:29Z</time>
      </trkpt>
      <trkpt lat="44.16203" lon="5.03619">
        <ele>296.7</ele>
        <time>2017-05-13T12:13:38Z</time>
      </trkpt>
      <trkpt lat="44.16197" lon="5.03608">
        <ele>298.15</ele>
        <time>2017-05-13T12:13:48Z</time>
      </trkpt>
      <trkpt lat="44.16192" lon="5.03595">
        <ele>299.11</ele>
        <time>2017-05-13T12:13:58Z</time>
      </trkpt>
      <trkpt lat="44.16191" lon="5.03581">
        <ele>300.07</ele>
        <time>2017-05-13T12:14:07Z</time>
      </trkpt>
      <trkpt lat="44.16191" lon="5.03566">
        <ele>300.07</ele>
        <time>2017-05-13T12:14:16Z</time>
      </trkpt>
      <trkpt lat="44.16191" lon="5.03553">
        <ele>300.55</ele>
        <time>2017-05-13T12:14:25Z</time>
      </trkpt>
      <trkpt lat="44.16188" lon="5.0354">
        <ele>301.03</ele>
        <time>2017-05-13T12:14:35Z</time>
      </trkpt>
      <trkpt lat="44.16184" lon="5.03527">
        <ele>301.51</ele>
        <time>2017-05-13T12:14:44Z</time>
      </trkpt>
      <trkpt lat="44.16181" lon="5.03513">
        <ele>301.99</ele>
        <time>2017-05-13T12:14:53Z</time>
      </trkpt>
      <trkpt lat="44.16178" lon="5.035">
        <ele>302.47</ele>
        <time>2017-05-13T12:15:02Z</time>
      </trkpt>
      <trkpt lat="44.16177" lon="5.0349">
        <ele>303.43</ele>
        <time>2017-05-13T12:15:24Z</time>
      </trkpt>
      <trkpt lat="44.16174" lon="5.03477">
        <ele>305.36</ele>
        <time>2017-05-13T12:15:33Z</time>
      </trkpt>
      <trkpt lat="44.16169" lon="5.03465">
        <ele>306.32</ele>
        <time>2017-05-13T12:15:43Z</time>
      </trkpt>
      <trkpt lat="44.16164" lon="5.03452">
        <ele>306.8</ele>
        <time>2017-05-13T12:15:54Z</time>
      </trkpt>
      <trkpt lat="44.16161" lon="5.03438">
        <ele>307.28</ele>
        <time>2017-05-13T12:16:03Z</time>
      </trkpt>
      <trkpt lat="44.16159" lon="5.03424">
        <ele>307.76</ele>
        <time>2017-05-13T12:16:13Z</time>
      </trkpt>
      <trkpt lat="44.1616" lon="5.03411">
        <ele>307.76</ele>
        <time>2017-05-13T12:16:33Z</time>
      </trkpt>
      <trkpt lat="44.16161" lon="5.03392">
        <ele>307.76</ele>
        <time>2017-05-13T12:16:45Z</time>
      </trkpt>
      <trkpt lat="44.16161" lon="5.03373">
        <ele>306.8</ele>
        <time>2017-05-13T12:17:26Z</time>
      </trkpt>
      <trkpt lat="44.16164" lon="5.03351">
        <ele>309.68</ele>
        <time>2017-05-13T12:24:14Z</time>
      </trkpt>
      <trkpt lat="44.16164" lon="5.03337">
        <ele>311.12</ele>
        <time>2017-05-13T12:24:29Z</time>
      </trkpt>
      <trkpt lat="44.16158" lon="5.03326">
        <ele>312.57</ele>
        <time>2017-05-13T12:24:40Z</time>
      </trkpt>
      <trkpt lat="44.16152" lon="5.03314">
        <ele>314.97</ele>
        <time>2017-05-13T12:24:54Z</time>
      </trkpt>
      <trkpt lat="44.16148" lon="5.033">
        <ele>316.41</ele>
        <time>2017-05-13T12:25:06Z</time>
      </trkpt>
      <trkpt lat="44.16145" lon="5.03284">
        <ele>317.85</ele>
        <time>2017-05-13T12:25:16Z</time>
      </trkpt>
      <trkpt lat="44.16142" lon="5.03269">
        <ele>319.3</ele>
        <time>2017-05-13T12:25:27Z</time>
      </trkpt>
      <trkpt lat="44.16139" lon="5.03253">
        <ele>320.26</ele>
        <time>2017-05-13T12:25:39Z</time>
      </trkpt>
      <trkpt lat="44.16136" lon="5.03237">
        <ele>320.74</ele>
        <time>2017-05-13T12:25:49Z</time>
      </trkpt>
      <trkpt lat="44.16134" lon="5.03224">
        <ele>321.22</ele>
        <time>2017-05-13T12:25:59Z</time>
      </trkpt>
      <trkpt lat="44.16131" lon="5.03209">
        <ele>322.18</ele>
        <time>2017-05-13T12:26:10Z</time>
      </trkpt>
      <trkpt lat="44.16128" lon="5.03193">
        <ele>322.18</ele>
        <time>2017-05-13T12:26:21Z</time>
      </trkpt>
      <trkpt lat="44.16124" lon="5.03178">
        <ele>323.14</ele>
        <time>2017-05-13T12:26:32Z</time>
      </trkpt>
      <trkpt lat="44.16121" lon="5.03162">
        <ele>324.58</ele>
        <time>2017-05-13T12:26:44Z</time>
      </trkpt>
      <trkpt lat="44.16118" lon="5.03148">
        <ele>325.54</ele>
        <time>2017-05-13T12:26:55Z</time>
      </trkpt>
      <trkpt lat="44.16113" lon="5.03134">
        <ele>326.02</ele>
        <time>2017-05-13T12:27:06Z</time>
      </trkpt>
      <trkpt lat="44.16106" lon="5.03124">
        <ele>326.02</ele>
        <time>2017-05-13T12:27:15Z</time>
      </trkpt>
      <trkpt lat="44.16102" lon="5.03111">
        <ele>326.5</ele>
        <time>2017-05-13T12:27:24Z</time>
      </trkpt>
      <trkpt lat="44.16098" lon="5.03097">
        <ele>327.95</ele>
        <time>2017-05-13T12:27:34Z</time>
      </trkpt>
      <trkpt lat="44.16095" lon="5.03084">
        <ele>329.39</ele>
        <time>2017-05-13T12:27:44Z</time>
      </trkpt>
      <trkpt lat="44.16093" lon="5.0307">
        <ele>330.35</ele>
        <time>2017-05-13T12:27:54Z</time>
      </trkpt>
      <trkpt lat="44.1609" lon="5.03054">
        <ele>331.79</ele>
        <time>2017-05-13T12:28:06Z</time>
      </trkpt>
      <trkpt lat="44.16086" lon="5.0304">
        <ele>333.23</ele>
        <time>2017-05-13T12:28:17Z</time>
      </trkpt>
      <trkpt lat="44.16085" lon="5.03024">
        <ele>334.2</ele>
        <time>2017-05-13T12:28:29Z</time>
      </trkpt>
      <trkpt lat="44.16085" lon="5.03009">
        <ele>335.64</ele>
        <time>2017-05-13T12:28:40Z</time>
      </trkpt>
      <trkpt lat="44.16085" lon="5.02996">
        <ele>337.08</ele>
        <time>2017-05-13T12:28:51Z</time>
      </trkpt>
      <trkpt lat="44.16085" lon="5.02982">
        <ele>338.04</ele>
        <time>2017-05-13T12:29:03Z</time>
      </trkpt>
      <trkpt lat="44.16082" lon="5.02968">
        <ele>339.48</ele>
        <time>2017-05-13T12:29:14Z</time>
      </trkpt>
      <trkpt lat="44.16081" lon="5.02954">
        <ele>340.92</ele>
        <time>2017-05-13T12:29:25Z</time>
      </trkpt>
      <trkpt lat="44.1608" lon="5.02938">
        <ele>342.37</ele>
        <time>2017-05-13T12:29:40Z</time>
      </trkpt>
      <trkpt lat="44.16078" lon="5.02923">
        <ele>343.33</ele>
        <time>2017-05-13T12:32:19Z</time>
      </trkpt>
      <trkpt lat="44.16074" lon="5.02909">
        <ele>344.77</ele>
        <time>2017-05-13T12:32:31Z</time>
      </trkpt>
      <trkpt lat="44.16068" lon="5.02898">
        <ele>345.73</ele>
        <time>2017-05-13T12:32:41Z</time>
      </trkpt>
      <trkpt lat="44.16064" lon="5.02884">
        <ele>347.17</ele>
        <time>2017-05-13T12:32:52Z</time>
      </trkpt>
      <trkpt lat="44.16061" lon="5.0287">
        <ele>348.62</ele>
        <time>2017-05-13T12:33:03Z</time>
      </trkpt>
      <trkpt lat="44.16059" lon="5.02854">
        <ele>350.06</ele>
        <time>2017-05-13T12:33:14Z</time>
      </trkpt>
      <trkpt lat="44.16055" lon="5.0284">
        <ele>351.02</ele>
        <time>2017-05-13T12:33:24Z</time>
      </trkpt>
      <trkpt lat="44.16053" lon="5.02826">
        <ele>352.46</ele>
        <time>2017-05-13T12:33:35Z</time>
      </trkpt>
      <trkpt lat="44.1605" lon="5.02811">
        <ele>353.9</ele>
        <time>2017-05-13T12:33:47Z</time>
      </trkpt>
      <trkpt lat="44.16047" lon="5.02795">
        <ele>355.34</ele>
        <time>2017-05-13T12:33:59Z</time>
      </trkpt>
      <trkpt lat="44.16042" lon="5.02781">
        <ele>356.31</ele>
        <time>2017-05-13T12:34:10Z</time>
      </trkpt>
      <trkpt lat="44.1604" lon="5.02768">
        <ele>358.71</ele>
        <time>2017-05-13T12:34:22Z</time>
      </trkpt>
      <trkpt lat="44.16033" lon="5.02756">
        <ele>360.15</ele>
        <time>2017-05-13T12:34:34Z</time>
      </trkpt>
      <trkpt lat="44.16027" lon="5.02744">
        <ele>361.59</ele>
        <time>2017-05-13T12:34:45Z</time>
      </trkpt>
      <trkpt lat="44.16019" lon="5.02733">
        <ele>363.04</ele>
        <time>2017-05-13T12:34:57Z</time>
      </trkpt>
      <trkpt lat="44.16014" lon="5.02719">
        <ele>364.48</ele>
        <time>2017-05-13T12:35:09Z</time>
      </trkpt>
      <trkpt lat="44.16009" lon="5.02706">
        <ele>365.92</ele>
        <time>2017-05-13T12:35:21Z</time>
      </trkpt>
      <trkpt lat="44.16004" lon="5.02694">
        <ele>367.36</ele>
        <time>2017-05-13T12:35:32Z</time>
      </trkpt>
      <trkpt lat="44.15997" lon="5.02681">
        <ele>369.76</ele>
        <time>2017-05-13T12:35:43Z</time>
      </trkpt>
      <trkpt lat="44.1599" lon="5.02667">
        <ele>372.17</ele>
        <time>2017-05-13T12:35:58Z</time>
      </trkpt>
      <trkpt lat="44.15981" lon="5.02654">
        <ele>374.09</ele>
        <time>2017-05-13T12:36:12Z</time>
      </trkpt>
      <trkpt lat="44.15975" lon="5.02643">
        <ele>375.53</ele>
        <time>2017-05-13T12:36:31Z</time>
      </trkpt>
      <trkpt lat="44.15967" lon="5.02632">
        <ele>377.45</ele>
        <time>2017-05-13T12:36:44Z</time>
      </trkpt>
      <trkpt lat="44.15961" lon="5.0262">
        <ele>379.86</ele>
        <time>2017-05-13T12:36:55Z</time>
      </trkpt>
      <trkpt lat="44.15955" lon="5.02608">
        <ele>381.78</ele>
        <time>2017-05-13T12:37:06Z</time>
      </trkpt>
      <trkpt lat="44.15948" lon="5.02596">
        <ele>383.22</ele>
        <time>2017-05-13T12:37:17Z</time>
      </trkpt>
      <trkpt lat="44.15942" lon="5.02583">
        <ele>385.15</ele>
        <time>2017-05-13T12:37:30Z</time>
      </trkpt>
      <trkpt lat="44.15936" lon="5.02571">
        <ele>386.11</ele>
        <time>2017-05-13T12:37:42Z</time>
      </trkpt>
      <trkpt lat="44.1593" lon="5.02557">
        <ele>387.07</ele>
        <time>2017-05-13T12:37:52Z</time>
      </trkpt>
      <trkpt lat="44.15924" lon="5.02544">
        <ele>388.03</ele>
        <time>2017-05-13T12:38:04Z</time>
      </trkpt>
      <trkpt lat="44.15918" lon="5.02531">
        <ele>388.99</ele>
        <time>2017-05-13T12:38:17Z</time>
      </trkpt>
      <trkpt lat="44.15912" lon="5.02518">
        <ele>390.43</ele>
        <time>2017-05-13T12:38:30Z</time>
      </trkpt>
      <trkpt lat="44.15905" lon="5.02505">
        <ele>391.87</ele>
        <time>2017-05-13T12:40:44Z</time>
      </trkpt>
      <trkpt lat="44.159" lon="5.02489">
        <ele>393.32</ele>
        <time>2017-05-13T12:40:57Z</time>
      </trkpt>
      <trkpt lat="44.15896" lon="5.02475">
        <ele>393.8</ele>
        <time>2017-05-13T12:41:09Z</time>
      </trkpt>
      <trkpt lat="44.15891" lon="5.02463">
        <ele>394.28</ele>
        <time>2017-05-13T12:41:20Z</time>
      </trkpt>
      <trkpt lat="44.15884" lon="5.02455">
        <ele>394.76</ele>
        <time>2017-05-13T12:41:34Z</time>
      </trkpt>
      <trkpt lat="44.15878" lon="5.02446">
        <ele>395.72</ele>
        <time>2017-05-13T12:53:35Z</time>
      </trkpt>
      <trkpt lat="44.15873" lon="5.02442">
        <ele>395.72</ele>
        <time>2017-05-13T12:54:06Z</time>
      </trkpt>
      <trkpt lat="44.15865" lon="5.02431">
        <ele>395.72</ele>
        <time>2017-05-13T12:54:18Z</time>
      </trkpt>
      <trkpt lat="44.15859" lon="5.02419">
        <ele>397.16</ele>
        <time>2017-05-13T12:54:28Z</time>
      </trkpt>
      <trkpt lat="44.15852" lon="5.02408">
        <ele>397.16</ele>
        <time>2017-05-13T12:54:38Z</time>
      </trkpt>
      <trkpt lat="44.15846" lon="5.02394">
        <ele>397.64</ele>
        <time>2017-05-13T12:54:47Z</time>
      </trkpt>
      <trkpt lat="44.15843" lon="5.0238">
        <ele>397.64</ele>
        <time>2017-05-13T12:54:56Z</time>
      </trkpt>
      <trkpt lat="44.15838" lon="5.02368">
        <ele>398.12</ele>
        <time>2017-05-13T12:55:05Z</time>
      </trkpt>
      <trkpt lat="44.15832" lon="5.02356">
        <ele>398.12</ele>
        <time>2017-05-13T12:55:14Z</time>
      </trkpt>
      <trkpt lat="44.15828" lon="5.02342">
        <ele>398.12</ele>
        <time>2017-05-13T12:55:23Z</time>
      </trkpt>
      <trkpt lat="44.15824" lon="5.02328">
        <ele>398.6</ele>
        <time>2017-05-13T12:55:32Z</time>
      </trkpt>
      <trkpt lat="44.1582" lon="5.02315">
        <ele>399.08</ele>
        <time>2017-05-13T12:55:41Z</time>
      </trkpt>
      <trkpt lat="44.15816" lon="5.02302">
        <ele>399.57</ele>
        <time>2017-05-13T12:55:50Z</time>
      </trkpt>
      <trkpt lat="44.15813" lon="5.02288">
        <ele>399.57</ele>
        <time>2017-05-13T12:55:59Z</time>
      </trkpt>
      <trkpt lat="44.1581" lon="5.02274">
        <ele>400.05</ele>
        <time>2017-05-13T12:56:09Z</time>
      </trkpt>
      <trkpt lat="44.15808" lon="5.02258">
        <ele>400.53</ele>
        <time>2017-05-13T12:56:18Z</time>
      </trkpt>
      <trkpt lat="44.15806" lon="5.02244">
        <ele>401.01</ele>
        <time>2017-05-13T12:56:27Z</time>
      </trkpt>
      <trkpt lat="44.15804" lon="5.02229">
        <ele>401.49</ele>
        <time>2017-05-13T12:56:36Z</time>
      </trkpt>
      <trkpt lat="44.15801" lon="5.02216">
        <ele>401.97</ele>
        <time>2017-05-13T12:56:45Z</time>
      </trkpt>
      <trkpt lat="44.15797" lon="5.02202">
        <ele>402.45</ele>
        <time>2017-05-13T12:56:54Z</time>
      </trkpt>
      <trkpt lat="44.15793" lon="5.02189">
        <ele>402.45</ele>
        <time>2017-05-13T12:57:03Z</time>
      </trkpt>
      <trkpt lat="44.1579" lon="5.02175">
        <ele>402.93</ele>
        <time>2017-05-13T12:57:12Z</time>
      </trkpt>
      <trkpt lat="44.15785" lon="5.02162">
        <ele>402.93</ele>
        <time>2017-05-13T12:57:21Z</time>
      </trkpt>
      <trkpt lat="44.15779" lon="5.0215">
        <ele>403.41</ele>
        <time>2017-05-13T12:57:30Z</time>
      </trkpt>
      <trkpt lat="44.15772" lon="5.02139">
        <ele>403.89</ele>
        <time>2017-05-13T12:57:39Z</time>
      </trkpt>
      <trkpt lat="44.15764" lon="5.02131">
        <ele>404.37</ele>
        <time>2017-05-13T12:57:48Z</time>
      </trkpt>
      <trkpt lat="44.15755" lon="5.02125">
        <ele>404.85</ele>
        <time>2017-05-13T12:57:57Z</time>
      </trkpt>
      <trkpt lat="44.15746" lon="5.02118">
        <ele>405.33</ele>
        <time>2017-05-13T12:58:06Z</time>
      </trkpt>
      <trkpt lat="44.15739" lon="5.02108">
        <ele>405.81</ele>
        <time>2017-05-13T12:58:14Z</time>
      </trkpt>
      <trkpt lat="44.15734" lon="5.02096">
        <ele>406.29</ele>
        <time>2017-05-13T12:58:23Z</time>
      </trkpt>
      <trkpt lat="44.15729" lon="5.02082">
        <ele>406.77</ele>
        <time>2017-05-13T12:58:32Z</time>
      </trkpt>
      <trkpt lat="44.15725" lon="5.02067">
        <ele>407.26</ele>
        <time>2017-05-13T12:58:41Z</time>
      </trkpt>
      <trkpt lat="44.15722" lon="5.02053">
        <ele>407.26</ele>
        <time>2017-05-13T12:58:50Z</time>
      </trkpt>
      <trkpt lat="44.15717" lon="5.02042">
        <ele>408.22</ele>
        <time>2017-05-13T12:58:58Z</time>
      </trkpt>
      <trkpt lat="44.1571" lon="5.02031">
        <ele>408.7</ele>
        <time>2017-05-13T12:59:08Z</time>
      </trkpt>
      <trkpt lat="44.15704" lon="5.02018">
        <ele>409.18</ele>
        <time>2017-05-13T12:59:17Z</time>
      </trkpt>
      <trkpt lat="44.15701" lon="5.02005">
        <ele>409.66</ele>
        <time>2017-05-13T12:59:26Z</time>
      </trkpt>
      <trkpt lat="44.157" lon="5.01991">
        <ele>410.14</ele>
        <time>2017-05-13T12:59:35Z</time>
      </trkpt>
      <trkpt lat="44.15697" lon="5.01977">
        <ele>410.62</ele>
        <time>2017-05-13T12:59:44Z</time>
      </trkpt>
      <trkpt lat="44.15693" lon="5.01964">
        <ele>411.1</ele>
        <time>2017-05-13T12:59:53Z</time>
      </trkpt>
      <trkpt lat="44.15691" lon="5.0195">
        <ele>411.1</ele>
        <time>2017-05-13T13:00:02Z</time>
      </trkpt>
      <trkpt lat="44.15689" lon="5.01936">
        <ele>412.06</ele>
        <time>2017-05-13T13:00:11Z</time>
      </trkpt>
      <trkpt lat="44.15689" lon="5.01922">
        <ele>412.54</ele>
        <time>2017-05-13T13:00:20Z</time>
      </trkpt>
      <trkpt lat="44.15689" lon="5.01907">
        <ele>413.02</ele>
        <time>2017-05-13T13:00:29Z</time>
      </trkpt>
      <trkpt lat="44.15689" lon="5.01893">
        <ele>413.5</ele>
        <time>2017-05-13T13:00:38Z</time>
      </trkpt>
      <trkpt lat="44.15688" lon="5.01879">
        <ele>413.98</ele>
        <time>2017-05-13T13:00:47Z</time>
      </trkpt>
      <trkpt lat="44.15689" lon="5.01864">
        <ele>414.47</ele>
        <time>2017-05-13T13:00:58Z</time>
      </trkpt>
      <trkpt lat="44.15692" lon="5.01857">
        <ele>415.43</ele>
        <time>2017-05-13T13:02:14Z</time>
      </trkpt>
      <trkpt lat="44.15687" lon="5.01842">
        <ele>415.43</ele>
        <time>2017-05-13T13:02:37Z</time>
      </trkpt>
      <trkpt lat="44.15685" lon="5.01829">
        <ele>415.91</ele>
        <time>2017-05-13T13:02:47Z</time>
      </trkpt>
      <trkpt lat="44.15682" lon="5.01816">
        <ele>415.91</ele>
        <time>2017-05-13T13:02:56Z</time>
      </trkpt>
      <trkpt lat="44.15679" lon="5.01802">
        <ele>415.91</ele>
        <time>2017-05-13T13:03:05Z</time>
      </trkpt>
      <trkpt lat="44.15674" lon="5.01789">
        <ele>416.39</ele>
        <time>2017-05-13T13:03:15Z</time>
      </trkpt>
      <trkpt lat="44.15666" lon="5.0178">
        <ele>416.87</ele>
        <time>2017-05-13T13:03:25Z</time>
      </trkpt>
      <trkpt lat="44.15661" lon="5.01769">
        <ele>416.87</ele>
        <time>2017-05-13T13:03:35Z</time>
      </trkpt>
      <trkpt lat="44.1566" lon="5.01753">
        <ele>417.35</ele>
        <time>2017-05-13T13:03:45Z</time>
      </trkpt>
      <trkpt lat="44.15662" lon="5.01738">
        <ele>417.35</ele>
        <time>2017-05-13T13:03:54Z</time>
      </trkpt>
      <trkpt lat="44.15665" lon="5.01724">
        <ele>417.83</ele>
        <time>2017-05-13T13:04:04Z</time>
      </trkpt>
      <trkpt lat="44.15669" lon="5.0171">
        <ele>418.31</ele>
        <time>2017-05-13T13:04:14Z</time>
      </trkpt>
      <trkpt lat="44.15671" lon="5.01696">
        <ele>418.79</ele>
        <time>2017-05-13T13:04:24Z</time>
      </trkpt>
      <trkpt lat="44.15672" lon="5.01682">
        <ele>418.79</ele>
        <time>2017-05-13T13:04:33Z</time>
      </trkpt>
      <trkpt lat="44.15671" lon="5.01667">
        <ele>418.79</ele>
        <time>2017-05-13T13:04:43Z</time>
      </trkpt>
      <trkpt lat="44.15667" lon="5.01655">
        <ele>419.27</ele>
        <time>2017-05-13T13:04:52Z</time>
      </trkpt>
      <trkpt lat="44.15664" lon="5.0164">
        <ele>420.23</ele>
        <time>2017-05-13T13:05:02Z</time>
      </trkpt>
      <trkpt lat="44.15659" lon="5.01627">
        <ele>420.71</ele>
        <time>2017-05-13T13:05:11Z</time>
      </trkpt>
      <trkpt lat="44.15655" lon="5.01613">
        <ele>420.71</ele>
        <time>2017-05-13T13:05:21Z</time>
      </trkpt>
      <trkpt lat="44.15651" lon="5.016">
        <ele>420.23</ele>
        <time>2017-05-13T13:05:30Z</time>
      </trkpt>
      <trkpt lat="44.15647" lon="5.01587">
        <ele>420.71</ele>
        <time>2017-05-13T13:05:40Z</time>
      </trkpt>
      <trkpt lat="44.15645" lon="5.01572">
        <ele>421.19</ele>
        <time>2017-05-13T13:05:50Z</time>
      </trkpt>
      <trkpt lat="44.15645" lon="5.01558">
        <ele>421.68</ele>
        <time>2017-05-13T13:05:59Z</time>
      </trkpt>
      <trkpt lat="44.15647" lon="5.01543">
        <ele>422.16</ele>
        <time>2017-05-13T13:06:12Z</time>
      </trkpt>
      <trkpt lat="44.15647" lon="5.0153">
        <ele>422.16</ele>
        <time>2017-05-13T13:06:22Z</time>
      </trkpt>
      <trkpt lat="44.15644" lon="5.01515">
        <ele>422.16</ele>
        <time>2017-05-13T13:06:32Z</time>
      </trkpt>
      <trkpt lat="44.15643" lon="5.015">
        <ele>422.16</ele>
        <time>2017-05-13T13:06:42Z</time>
      </trkpt>
      <trkpt lat="44.15642" lon="5.01486">
        <ele>422.64</ele>
        <time>2017-05-13T13:06:51Z</time>
      </trkpt>
      <trkpt lat="44.15642" lon="5.01472">
        <ele>423.12</ele>
        <time>2017-05-13T13:07:01Z</time>
      </trkpt>
      <trkpt lat="44.15642" lon="5.01457">
        <ele>423.6</ele>
        <time>2017-05-13T13:07:11Z</time>
      </trkpt>
      <trkpt lat="44.15641" lon="5.01442">
        <ele>424.08</ele>
        <time>2017-05-13T13:07:20Z</time>
      </trkpt>
      <trkpt lat="44.15641" lon="5.01426">
        <ele>424.08</ele>
        <time>2017-05-13T13:07:30Z</time>
      </trkpt>
      <trkpt lat="44.15643" lon="5.01412">
        <ele>424.56</ele>
        <time>2017-05-13T13:07:39Z</time>
      </trkpt>
      <trkpt lat="44.15645" lon="5.01398">
        <ele>424.56</ele>
        <time>2017-05-13T13:07:49Z</time>
      </trkpt>
      <trkpt lat="44.15648" lon="5.01383">
        <ele>424.56</ele>
        <time>2017-05-13T13:07:58Z</time>
      </trkpt>
      <trkpt lat="44.1565" lon="5.01369">
        <ele>425.04</ele>
        <time>2017-05-13T13:08:07Z</time>
      </trkpt>
      <trkpt lat="44.15653" lon="5.01354">
        <ele>425.52</ele>
        <time>2017-05-13T13:08:17Z</time>
      </trkpt>
      <trkpt lat="44.15656" lon="5.0134">
        <ele>425.52</ele>
        <time>2017-05-13T13:08:27Z</time>
      </trkpt>
      <trkpt lat="44.15658" lon="5.01324">
        <ele>426</ele>
        <time>2017-05-13T13:08:37Z</time>
      </trkpt>
      <trkpt lat="44.15659" lon="5.0131">
        <ele>426</ele>
        <time>2017-05-13T13:08:46Z</time>
      </trkpt>
      <trkpt lat="44.15661" lon="5.01297">
        <ele>426</ele>
        <time>2017-05-13T13:08:55Z</time>
      </trkpt>
      <trkpt lat="44.15664" lon="5.01284">
        <ele>426.48</ele>
        <time>2017-05-13T13:09:05Z</time>
      </trkpt>
      <trkpt lat="44.15667" lon="5.01271">
        <ele>426.96</ele>
        <time>2017-05-13T13:09:15Z</time>
      </trkpt>
      <trkpt lat="44.1567" lon="5.01258">
        <ele>426.96</ele>
        <time>2017-05-13T13:09:24Z</time>
      </trkpt>
      <trkpt lat="44.15676" lon="5.01245">
        <ele>426.96</ele>
        <time>2017-05-13T13:09:34Z</time>
      </trkpt>
      <trkpt lat="44.1568" lon="5.01232">
        <ele>426.96</ele>
        <time>2017-05-13T13:09:43Z</time>
      </trkpt>
      <trkpt lat="44.15685" lon="5.01219">
        <ele>427.44</ele>
        <time>2017-05-13T13:09:52Z</time>
      </trkpt>
      <trkpt lat="44.15691" lon="5.01206">
        <ele>427.44</ele>
        <time>2017-05-13T13:10:02Z</time>
      </trkpt>
      <trkpt lat="44.15696" lon="5.01191">
        <ele>427.44</ele>
        <time>2017-05-13T13:10:12Z</time>
      </trkpt>
      <trkpt lat="44.15701" lon="5.01178">
        <ele>427.44</ele>
        <time>2017-05-13T13:10:22Z</time>
      </trkpt>
      <trkpt lat="44.15705" lon="5.01165">
        <ele>427.44</ele>
        <time>2017-05-13T13:10:31Z</time>
      </trkpt>
      <trkpt lat="44.15711" lon="5.01153">
        <ele>427.92</ele>
        <time>2017-05-13T13:10:44Z</time>
      </trkpt>
      <trkpt lat="44.15714" lon="5.0114">
        <ele>427.92</ele>
        <time>2017-05-13T13:10:53Z</time>
      </trkpt>
      <trkpt lat="44.15718" lon="5.01129">
        <ele>427.92</ele>
        <time>2017-05-13T13:11:09Z</time>
      </trkpt>
      <trkpt lat="44.15728" lon="5.01124">
        <ele>428.4</ele>
        <time>2017-05-13T13:12:57Z</time>
      </trkpt>
      <trkpt lat="44.15736" lon="5.01124">
        <ele>429.85</ele>
        <time>2017-05-13T13:13:04Z</time>
      </trkpt>
      <trkpt lat="44.15752" lon="5.01127">
        <ele>434.17</ele>
        <time>2017-05-13T13:13:18Z</time>
      </trkpt>
      <trkpt lat="44.15766" lon="5.01125">
        <ele>439.94</ele>
        <time>2017-05-13T13:13:35Z</time>
      </trkpt>
      <trkpt lat="44.15801" lon="5.01107">
        <ele>452.44</ele>
        <time>2017-05-13T13:14:41Z</time>
      </trkpt>
      <trkpt lat="44.15814" lon="5.0109">
        <ele>464.93</ele>
        <time>2017-05-13T13:22:19Z</time>
      </trkpt>
      <trkpt lat="44.15723" lon="5.01117">
        <ele>428.89</ele>
        <time>2017-05-13T13:27:36Z</time>
      </trkpt>
      <trkpt lat="44.15715" lon="5.01105">
        <ele>426</ele>
        <time>2017-05-13T13:28:02Z</time>
      </trkpt>
      <trkpt lat="44.15716" lon="5.0109">
        <ele>424.56</ele>
        <time>2017-05-13T13:28:20Z</time>
      </trkpt>
      <trkpt lat="44.15721" lon="5.01077">
        <ele>423.6</ele>
        <time>2017-05-13T13:28:31Z</time>
      </trkpt>
      <trkpt lat="44.15724" lon="5.01063">
        <ele>420.71</ele>
        <time>2017-05-13T13:28:47Z</time>
      </trkpt>
      <trkpt lat="44.15724" lon="5.01044">
        <ele>417.83</ele>
        <time>2017-05-13T13:29:10Z</time>
      </trkpt>
      <trkpt lat="44.15723" lon="5.01024">
        <ele>414.95</ele>
        <time>2017-05-13T13:29:28Z</time>
      </trkpt>
      <trkpt lat="44.15725" lon="5.01006">
        <ele>412.06</ele>
        <time>2017-05-13T13:29:46Z</time>
      </trkpt>
      <trkpt lat="44.15731" lon="5.0099">
        <ele>408.22</ele>
        <time>2017-05-13T13:30:10Z</time>
      </trkpt>
      <trkpt lat="44.15741" lon="5.00977">
        <ele>405.33</ele>
        <time>2017-05-13T13:30:24Z</time>
      </trkpt>
      <trkpt lat="44.15749" lon="5.00968">
        <ele>402.93</ele>
        <time>2017-05-13T13:30:36Z</time>
      </trkpt>
      <trkpt lat="44.15757" lon="5.00957">
        <ele>401.01</ele>
        <time>2017-05-13T13:30:49Z</time>
      </trkpt>
      <trkpt lat="44.15766" lon="5.00949">
        <ele>398.6</ele>
        <time>2017-05-13T13:31:04Z</time>
      </trkpt>
      <trkpt lat="44.15775" lon="5.00941">
        <ele>394.76</ele>
        <time>2017-05-13T13:31:22Z</time>
      </trkpt>
      <trkpt lat="44.15783" lon="5.00929">
        <ele>391.39</ele>
        <time>2017-05-13T13:31:39Z</time>
      </trkpt>
      <trkpt lat="44.15785" lon="5.00912">
        <ele>388.51</ele>
        <time>2017-05-13T13:31:53Z</time>
      </trkpt>
      <trkpt lat="44.15793" lon="5.009">
        <ele>386.11</ele>
        <time>2017-05-13T13:32:07Z</time>
      </trkpt>
      <trkpt lat="44.15802" lon="5.00891">
        <ele>383.22</ele>
        <time>2017-05-13T13:32:20Z</time>
      </trkpt>
      <trkpt lat="44.15814" lon="5.00887">
        <ele>380.82</ele>
        <time>2017-05-13T13:32:32Z</time>
      </trkpt>
      <trkpt lat="44.15823" lon="5.00879">
        <ele>377.45</ele>
        <time>2017-05-13T13:32:46Z</time>
      </trkpt>
      <trkpt lat="44.15834" lon="5.00878">
        <ele>376.01</ele>
        <time>2017-05-13T13:32:57Z</time>
      </trkpt>
      <trkpt lat="44.15848" lon="5.00874">
        <ele>373.61</ele>
        <time>2017-05-13T13:36:08Z</time>
      </trkpt>
      <trkpt lat="44.15858" lon="5.00877">
        <ele>372.17</ele>
        <time>2017-05-13T13:36:28Z</time>
      </trkpt>
      <trkpt lat="44.1587" lon="5.00877">
        <ele>370.24</ele>
        <time>2017-05-13T13:36:40Z</time>
      </trkpt>
      <trkpt lat="44.15879" lon="5.00871">
        <ele>368.8</ele>
        <time>2017-05-13T13:36:52Z</time>
      </trkpt>
      <trkpt lat="44.15888" lon="5.00864">
        <ele>368.32</ele>
        <time>2017-05-13T13:37:03Z</time>
      </trkpt>
      <trkpt lat="44.159" lon="5.00866">
        <ele>366.88</ele>
        <time>2017-05-13T13:37:16Z</time>
      </trkpt>
      <trkpt lat="44.15909" lon="5.00874">
        <ele>365.92</ele>
        <time>2017-05-13T13:37:28Z</time>
      </trkpt>
      <trkpt lat="44.15916" lon="5.00885">
        <ele>364.48</ele>
        <time>2017-05-13T13:37:43Z</time>
      </trkpt>
      <trkpt lat="44.15924" lon="5.00898">
        <ele>363.04</ele>
        <time>2017-05-13T13:37:54Z</time>
      </trkpt>
      <trkpt lat="44.15931" lon="5.00911">
        <ele>362.07</ele>
        <time>2017-05-13T13:38:05Z</time>
      </trkpt>
      <trkpt lat="44.15936" lon="5.00925">
        <ele>361.59</ele>
        <time>2017-05-13T13:38:17Z</time>
      </trkpt>
      <trkpt lat="44.15944" lon="5.00932">
        <ele>360.63</ele>
        <time>2017-05-13T13:38:30Z</time>
      </trkpt>
      <trkpt lat="44.15941" lon="5.00918">
        <ele>359.67</ele>
        <time>2017-05-13T13:38:42Z</time>
      </trkpt>
      <trkpt lat="44.15936" lon="5.00905">
        <ele>359.67</ele>
        <time>2017-05-13T13:38:52Z</time>
      </trkpt>
      <trkpt lat="44.1593" lon="5.00893">
        <ele>359.19</ele>
        <time>2017-05-13T13:39:04Z</time>
      </trkpt>
      <trkpt lat="44.15924" lon="5.0088">
        <ele>358.23</ele>
        <time>2017-05-13T13:39:16Z</time>
      </trkpt>
      <trkpt lat="44.15919" lon="5.00866">
        <ele>356.79</ele>
        <time>2017-05-13T13:39:30Z</time>
      </trkpt>
      <trkpt lat="44.15918" lon="5.0085">
        <ele>355.34</ele>
        <time>2017-05-13T13:39:41Z</time>
      </trkpt>
      <trkpt lat="44.15919" lon="5.00834">
        <ele>353.9</ele>
        <time>2017-05-13T13:39:51Z</time>
      </trkpt>
      <trkpt lat="44.15921" lon="5.00816">
        <ele>352.94</ele>
        <time>2017-05-13T13:40:01Z</time>
      </trkpt>
      <trkpt lat="44.15925" lon="5.00802">
        <ele>351.5</ele>
        <time>2017-05-13T13:40:12Z</time>
      </trkpt>
      <trkpt lat="44.15928" lon="5.00789">
        <ele>349.58</ele>
        <time>2017-05-13T13:40:24Z</time>
      </trkpt>
      <trkpt lat="44.15929" lon="5.00773">
        <ele>347.17</ele>
        <time>2017-05-13T13:40:37Z</time>
      </trkpt>
      <trkpt lat="44.15929" lon="5.00758">
        <ele>345.25</ele>
        <time>2017-05-13T13:40:49Z</time>
      </trkpt>
      <trkpt lat="44.15928" lon="5.00745">
        <ele>343.33</ele>
        <time>2017-05-13T13:41:03Z</time>
      </trkpt>
      <trkpt lat="44.1593" lon="5.00729">
        <ele>341.41</ele>
        <time>2017-05-13T13:41:16Z</time>
      </trkpt>
      <trkpt lat="44.15931" lon="5.00715">
        <ele>339.96</ele>
        <time>2017-05-13T13:41:28Z</time>
      </trkpt>
      <trkpt lat="44.15933" lon="5.00702">
        <ele>338.52</ele>
        <time>2017-05-13T13:41:40Z</time>
      </trkpt>
      <trkpt lat="44.15937" lon="5.00688">
        <ele>337.08</ele>
        <time>2017-05-13T13:41:53Z</time>
      </trkpt>
      <trkpt lat="44.15941" lon="5.00675">
        <ele>335.16</ele>
        <time>2017-05-13T13:42:07Z</time>
      </trkpt>
      <trkpt lat="44.15943" lon="5.00655">
        <ele>333.23</ele>
        <time>2017-05-13T13:42:20Z</time>
      </trkpt>
      <trkpt lat="44.15941" lon="5.00638">
        <ele>331.79</ele>
        <time>2017-05-13T13:42:32Z</time>
      </trkpt>
      <trkpt lat="44.1594" lon="5.00621">
        <ele>329.39</ele>
        <time>2017-05-13T13:42:48Z</time>
      </trkpt>
      <trkpt lat="44.15941" lon="5.00606">
        <ele>326.99</ele>
        <time>2017-05-13T13:43:02Z</time>
      </trkpt>
      <trkpt lat="44.15941" lon="5.00584">
        <ele>324.58</ele>
        <time>2017-05-13T13:43:18Z</time>
      </trkpt>
      <trkpt lat="44.15942" lon="5.00568">
        <ele>321.7</ele>
        <time>2017-05-13T13:43:33Z</time>
      </trkpt>
      <trkpt lat="44.15942" lon="5.00552">
        <ele>320.26</ele>
        <time>2017-05-13T13:43:45Z</time>
      </trkpt>
      <trkpt lat="44.1594" lon="5.00533">
        <ele>317.37</ele>
        <time>2017-05-13T13:44:01Z</time>
      </trkpt>
      <trkpt lat="44.15939" lon="5.00516">
        <ele>314.49</ele>
        <time>2017-05-13T13:44:15Z</time>
      </trkpt>
      <trkpt lat="44.15938" lon="5.00499">
        <ele>311.6</ele>
        <time>2017-05-13T13:44:34Z</time>
      </trkpt>
      <trkpt lat="44.15934" lon="5.00484">
        <ele>307.76</ele>
        <time>2017-05-13T13:44:52Z</time>
      </trkpt>
      <trkpt lat="44.15938" lon="5.00469">
        <ele>305.84</ele>
        <time>2017-05-13T13:45:06Z</time>
      </trkpt>
      <trkpt lat="44.15947" lon="5.0045">
        <ele>303.43</ele>
        <time>2017-05-13T13:45:27Z</time>
      </trkpt>
      <trkpt lat="44.15955" lon="5.0044">
        <ele>301.51</ele>
        <time>2017-05-13T13:45:40Z</time>
      </trkpt>
      <trkpt lat="44.15962" lon="5.00428">
        <ele>300.55</ele>
        <time>2017-05-13T13:45:52Z</time>
      </trkpt>
      <trkpt lat="44.15969" lon="5.00416">
        <ele>298.15</ele>
        <time>2017-05-13T13:46:06Z</time>
      </trkpt>
      <trkpt lat="44.15974" lon="5.00402">
        <ele>296.22</ele>
        <time>2017-05-13T13:46:19Z</time>
      </trkpt>
      <trkpt lat="44.15977" lon="5.0039">
        <ele>294.78</ele>
        <time>2017-05-13T13:46:32Z</time>
      </trkpt>
      <trkpt lat="44.15983" lon="5.00376">
        <ele>292.86</ele>
        <time>2017-05-13T13:46:44Z</time>
      </trkpt>
      <trkpt lat="44.15989" lon="5.00361">
        <ele>291.42</ele>
        <time>2017-05-13T13:47:08Z</time>
      </trkpt>
      <trkpt lat="44.15998" lon="5.00354">
        <ele>289.01</ele>
        <time>2017-05-13T13:47:24Z</time>
      </trkpt>
      <trkpt lat="44.16007" lon="5.00345">
        <ele>287.57</ele>
        <time>2017-05-13T13:47:38Z</time>
      </trkpt>
      <trkpt lat="44.16016" lon="5.00337">
        <ele>285.65</ele>
        <time>2017-05-13T13:47:51Z</time>
      </trkpt>
      <trkpt lat="44.16022" lon="5.00327">
        <ele>284.21</ele>
        <time>2017-05-13T13:48:03Z</time>
      </trkpt>
      <trkpt lat="44.16029" lon="5.00317">
        <ele>281.8</ele>
        <time>2017-05-13T13:48:18Z</time>
      </trkpt>
      <trkpt lat="44.16041" lon="5.00317">
        <ele>279.4</ele>
        <time>2017-05-13T13:48:33Z</time>
      </trkpt>
      <trkpt lat="44.16051" lon="5.00323">
        <ele>277</ele>
        <time>2017-05-13T13:48:48Z</time>
      </trkpt>
      <trkpt lat="44.16061" lon="5.00331">
        <ele>275.56</ele>
        <time>2017-05-13T13:49:00Z</time>
      </trkpt>
      <trkpt lat="44.16071" lon="5.00343">
        <ele>273.63</ele>
        <time>2017-05-13T13:49:17Z</time>
      </trkpt>
      <trkpt lat="44.16077" lon="5.00353">
        <ele>272.19</ele>
        <time>2017-05-13T13:49:30Z</time>
      </trkpt>
      <trkpt lat="44.16084" lon="5.00367">
        <ele>270.27</ele>
        <time>2017-05-13T13:49:47Z</time>
      </trkpt>
      <trkpt lat="44.16091" lon="5.0038">
        <ele>269.31</ele>
        <time>2017-05-13T13:50:00Z</time>
      </trkpt>
      <trkpt lat="44.161" lon="5.00392">
        <ele>267.38</ele>
        <time>2017-05-13T13:50:15Z</time>
      </trkpt>
      <trkpt lat="44.16109" lon="5.004">
        <ele>265.94</ele>
        <time>2017-05-13T13:50:29Z</time>
      </trkpt>
      <trkpt lat="44.16119" lon="5.00406">
        <ele>264.5</ele>
        <time>2017-05-13T13:50:41Z</time>
      </trkpt>
      <trkpt lat="44.16129" lon="5.00412">
        <ele>263.06</ele>
        <time>2017-05-13T13:50:51Z</time>
      </trkpt>
      <trkpt lat="44.16139" lon="5.00418">
        <ele>261.14</ele>
        <time>2017-05-13T13:51:04Z</time>
      </trkpt>
      <trkpt lat="44.16148" lon="5.00424">
        <ele>259.21</ele>
        <time>2017-05-13T13:51:18Z</time>
      </trkpt>
      <trkpt lat="44.1616" lon="5.00427">
        <ele>257.77</ele>
        <time>2017-05-13T13:51:31Z</time>
      </trkpt>
      <trkpt lat="44.1617" lon="5.00433">
        <ele>255.37</ele>
        <time>2017-05-13T13:51:43Z</time>
      </trkpt>
      <trkpt lat="44.16177" lon="5.00443">
        <ele>253.44</ele>
        <time>2017-05-13T13:51:55Z</time>
      </trkpt>
      <trkpt lat="44.16183" lon="5.00453">
        <ele>251.52</ele>
        <time>2017-05-13T13:52:12Z</time>
      </trkpt>
      <trkpt lat="44.16191" lon="5.00465">
        <ele>250.56</ele>
        <time>2017-05-13T13:52:23Z</time>
      </trkpt>
      <trkpt lat="44.16201" lon="5.00473">
        <ele>249.12</ele>
        <time>2017-05-13T13:52:35Z</time>
      </trkpt>
      <trkpt lat="44.1621" lon="5.00478">
        <ele>248.16</ele>
        <time>2017-05-13T13:52:48Z</time>
      </trkpt>
      <trkpt lat="44.16219" lon="5.00482">
        <ele>247.68</ele>
        <time>2017-05-13T13:53:20Z</time>
      </trkpt>
      <trkpt lat="44.16228" lon="5.00489">
        <ele>247.68</ele>
        <time>2017-05-13T13:53:42Z</time>
      </trkpt>
      <trkpt lat="44.16239" lon="5.00486">
        <ele>249.6</ele>
        <time>2017-05-13T13:53:54Z</time>
      </trkpt>
      <trkpt lat="44.1625" lon="5.00486">
        <ele>250.56</ele>
        <time>2017-05-13T13:54:05Z</time>
      </trkpt>
      <trkpt lat="44.16261" lon="5.00483">
        <ele>252</ele>
        <time>2017-05-13T13:54:17Z</time>
      </trkpt>
      <trkpt lat="44.16271" lon="5.00481">
        <ele>252.48</ele>
        <time>2017-05-13T13:54:28Z</time>
      </trkpt>
      <trkpt lat="44.16279" lon="5.00477">
        <ele>252</ele>
        <time>2017-05-13T13:54:46Z</time>
      </trkpt>
      <trkpt lat="44.16288" lon="5.00473">
        <ele>252</ele>
        <time>2017-05-13T13:55:00Z</time>
      </trkpt>
      <trkpt lat="44.16299" lon="5.00473">
        <ele>252</ele>
        <time>2017-05-13T13:55:11Z</time>
      </trkpt>
      <trkpt lat="44.16309" lon="5.00473">
        <ele>252.48</ele>
        <time>2017-05-13T13:55:22Z</time>
      </trkpt>
      <trkpt lat="44.16309" lon="5.00486">
        <ele>254.41</ele>
        <time>2017-05-13T13:55:41Z</time>
      </trkpt>
      <trkpt lat="44.16308" lon="5.00498">
        <ele>257.29</ele>
        <time>2017-05-13T13:55:53Z</time>
      </trkpt>
      <trkpt lat="44.16307" lon="5.00513">
        <ele>259.21</ele>
        <time>2017-05-13T13:56:03Z</time>
      </trkpt>
      <trkpt lat="44.16307" lon="5.00528">
        <ele>259.69</ele>
        <time>2017-05-13T13:56:13Z</time>
      </trkpt>
      <trkpt lat="44.1631" lon="5.00539">
        <ele>260.65</ele>
        <time>2017-05-13T13:56:51Z</time>
      </trkpt>
      <trkpt lat="44.1631" lon="5.00551">
        <ele>260.65</ele>
        <time>2017-05-13T13:57:45Z</time>
      </trkpt>
      <trkpt lat="44.16305" lon="5.00565">
        <ele>260.65</ele>
        <time>2017-05-13T13:58:03Z</time>
      </trkpt>
      <trkpt lat="44.1631" lon="5.00566">
        <ele>258.25</ele>
        <time>2017-05-13T14:01:45Z</time>
      </trkpt>
      <trkpt lat="44.16319" lon="5.00556">
        <ele>255.85</ele>
        <time>2017-05-13T14:01:56Z</time>
      </trkpt>
      <trkpt lat="44.16322" lon="5.00541">
        <ele>252.48</ele>
        <time>2017-05-13T14:02:22Z</time>
      </trkpt>
      <trkpt lat="44.16331" lon="5.00525">
        <ele>248.64</ele>
        <time>2017-05-13T14:02:42Z</time>
      </trkpt>
      <trkpt lat="44.16347" lon="5.00516">
        <ele>245.75</ele>
        <time>2017-05-13T14:03:05Z</time>
      </trkpt>
      <trkpt lat="44.16355" lon="5.00507">
        <ele>243.83</ele>
        <time>2017-05-13T14:03:17Z</time>
      </trkpt>
      <trkpt lat="44.16362" lon="5.00494">
        <ele>241.91</ele>
        <time>2017-05-13T14:03:30Z</time>
      </trkpt>
      <trkpt lat="44.16367" lon="5.00479">
        <ele>240.95</ele>
        <time>2017-05-13T14:03:43Z</time>
      </trkpt>
      <trkpt lat="44.16367" lon="5.00464">
        <ele>239.99</ele>
        <time>2017-05-13T14:03:57Z</time>
      </trkpt>
      <trkpt lat="44.16371" lon="5.00451">
        <ele>239.02</ele>
        <time>2017-05-13T14:04:09Z</time>
      </trkpt>
      <trkpt lat="44.16364" lon="5.0044">
        <ele>239.02</ele>
        <time>2017-05-13T14:04:21Z</time>
      </trkpt>
      <trkpt lat="44.16351" lon="5.00422">
        <ele>239.02</ele>
        <time>2017-05-13T14:05:12Z</time>
      </trkpt>
      <trkpt lat="44.16359" lon="5.00413">
        <ele>239.02</ele>
        <time>2017-05-13T14:05:34Z</time>
      </trkpt>
      <trkpt lat="44.16363" lon="5.00417">
        <ele>239.99</ele>
        <time>2017-05-13T14:08:12Z</time>
      </trkpt>
      <trkpt lat="44.16371" lon="5.0043">
        <ele>240.95</ele>
        <time>2017-05-13T14:10:13Z</time>
      </trkpt>
      <trkpt lat="44.16382" lon="5.00443">
        <ele>240.95</ele>
        <time>2017-05-13T14:10:29Z</time>
      </trkpt>
      <trkpt lat="44.16396" lon="5.00467">
        <ele>241.43</ele>
        <time>2017-05-13T14:10:40Z</time>
      </trkpt>
      <trkpt lat="44.1641" lon="5.0049">
        <ele>239.00390625</ele>
      </trkpt>
      <trkpt lat="44.16417" lon="5.00527">
        <ele>240.8125</ele>
      </trkpt>
      <trkpt lat="44.16436" lon="5.00544">
        <ele>242.0234375</ele>
      </trkpt>
      <trkpt lat="44.16454" lon="5.00558">
        <ele>241.125</ele>
      </trkpt>
      <trkpt lat="44.16471" lon="5.0058">
        <ele>240.453125</ele>
      </trkpt>
      <trkpt lat="44.16486" lon="5.00591">
        <ele>239.77734375</ele>
      </trkpt>
      <trkpt lat="44.16505" lon="5.00605">
        <ele>241.47265625</ele>
      </trkpt>
      <trkpt lat="44.16537" lon="5.00583">
        <ele>234.4609375</ele>
      </trkpt>
      <trkpt lat="44.1655" lon="5.00572">
        <ele>232.6171875</ele>
      </trkpt>
      <trkpt lat="44.16559" lon="5.00568">
        <ele>231.6484375</ele>
      </trkpt>
      <trkpt lat="44.1657" lon="5.00552">
        <ele>230.03125</ele>
      </trkpt>
      <trkpt lat="44.16564" lon="5.00542">
        <ele>229.93359375</ele>
      </trkpt>
      <trkpt lat="44.16557" lon="5.0052">
        <ele>237.9765625</ele>
      </trkpt>
    </trkseg>
  </trk>
</gpx>